<?xml version="1.0" encoding="UTF-8" standalone="no" ?>
<gpx xmlns="http://www.topografix.com/GPX/1/1" xmlns:xsi="http://www.w3.org/2001/XMLSchema-instance" xsi:schemaLocation="http://www.topografix.com/GPX/1/1 http://www.topografix.com/GPX/1/1/gpx.xsd" version="1.1" creator="VisuGPX - https://www.visugpx.com">
  <metadata>
    <name>Les Salces / Pas de l'Aze / Pioch Nègre /Col du vent /roc Traoucat /chemin des Saliniers/ Bergerie de Cabanou </name>
    <desc><![CDATA[D'abord sur une petite route, puis une piste, puis un sentier, nous allons monter très progressivement depuis le village des Salces jusqu'au plateau du Larzac sur lequel nous déboucherons après avoir franchi le "pas de l'Aze". Nous empruntons  d'abord le GR74 avant de prendre à droite un sentier orientation sud vers le Pioch Nègre (755m). De celui-ci, une sente à travers la végétation amène jusqu'au rebord du plateau au dessus des falaises , puis nous atteignons le col du Vent (703m) où vous traversons la route. De là, on prend le sentier qui monte dans le bois direction sud, puis tourne progressivement vers l'Est. Il redescend alors, passe à coté du Roc Traoucat avant de rejoindre une piste plus large au carrefour des Saliniers (692m)  On tourne alors à droite pour continuer vers le sud, avant une boucle à gauche. On descend deux lacets un peu plus loin , on laisse sur notre gauche (623m) un sentier qui remonte plein Nord vers le Val Durand pour continuer tout droit, effectuer une grande boucle vers la gauche et rejoindre ensuite en palier  la bergerie de Cabanou, dans l'épingle à 180° de la route D9 (620m).On emprunte celle-ci en descendant sur 350m environ, avant de prendre à droite la piste qui remonte d'abord , parallèle et en dessous de la route avant d'entamer la descente qui nous ramènera aux Salces. Bonne piste puis sentier (ancien tracé du GR74)  pour cette descente sauf un bref passage un peu raide moins d'un kilomètre avant l'arrivée.]]></desc>
  </metadata>
  <trk>
    <name><![CDATA[Randonnée du 22/10/2021 à 08:28]]></name>
    <trkseg>
      <trkpt lat="43.75463" lon="3.43563">
        <ele>305</ele>
        <time>2021-10-21T09:24:46+02:00</time>
      </trkpt>
      <trkpt lat="43.75469" lon="3.43583">
        <ele>306</ele>
        <time>2021-10-21T09:25:10+02:00</time>
      </trkpt>
      <trkpt lat="43.75481" lon="3.436">
        <ele>308</ele>
        <time>2021-10-21T09:25:38+02:00</time>
      </trkpt>
      <trkpt lat="43.75504" lon="3.43607">
        <ele>309</ele>
        <time>2021-10-21T09:26:09+02:00</time>
      </trkpt>
      <trkpt lat="43.75512" lon="3.43611">
        <ele>309</ele>
        <time>2021-10-21T09:26:23+02:00</time>
      </trkpt>
      <trkpt lat="43.7551" lon="3.43654">
        <ele>314</ele>
        <time>2021-10-21T09:27:15+02:00</time>
      </trkpt>
      <trkpt lat="43.75505" lon="3.43665">
        <ele>315</ele>
        <time>2021-10-21T09:27:25+02:00</time>
      </trkpt>
      <trkpt lat="43.75503" lon="3.4367">
        <ele>316</ele>
        <time>2021-10-21T09:27:30+02:00</time>
      </trkpt>
      <trkpt lat="43.75495" lon="3.43678">
        <ele>316</ele>
        <time>2021-10-21T09:27:47+02:00</time>
      </trkpt>
      <trkpt lat="43.75493" lon="3.43679">
        <ele>316</ele>
        <time>2021-10-21T09:27:50+02:00</time>
      </trkpt>
      <trkpt lat="43.75484" lon="3.43698">
        <ele>318</ele>
        <time>2021-10-21T09:28:03+02:00</time>
      </trkpt>
      <trkpt lat="43.75476" lon="3.43711">
        <ele>319</ele>
        <time>2021-10-21T09:28:18+02:00</time>
      </trkpt>
      <trkpt lat="43.75468" lon="3.43739">
        <ele>322</ele>
        <time>2021-10-21T09:28:42+02:00</time>
      </trkpt>
      <trkpt lat="43.75461" lon="3.43757">
        <ele>324</ele>
        <time>2021-10-21T09:28:58+02:00</time>
      </trkpt>
      <trkpt lat="43.75448" lon="3.43795">
        <ele>326</ele>
        <time>2021-10-21T09:29:20+02:00</time>
      </trkpt>
      <trkpt lat="43.75437" lon="3.43826">
        <ele>327</ele>
        <time>2021-10-21T09:29:30+02:00</time>
      </trkpt>
      <trkpt lat="43.75436" lon="3.43832">
        <ele>328</ele>
        <time>2021-10-21T09:29:33+02:00</time>
      </trkpt>
      <trkpt lat="43.75434" lon="3.43847">
        <ele>329</ele>
        <time>2021-10-21T09:29:41+02:00</time>
      </trkpt>
      <trkpt lat="43.75433" lon="3.43861">
        <ele>329</ele>
        <time>2021-10-21T09:29:52+02:00</time>
      </trkpt>
      <trkpt lat="43.75432" lon="3.43875">
        <ele>331</ele>
        <time>2021-10-21T09:30:02+02:00</time>
      </trkpt>
      <trkpt lat="43.75429" lon="3.43894">
        <ele>332</ele>
        <time>2021-10-21T09:30:12+02:00</time>
      </trkpt>
      <trkpt lat="43.75428" lon="3.43896">
        <ele>332</ele>
        <time>2021-10-21T09:30:13+02:00</time>
      </trkpt>
      <trkpt lat="43.75426" lon="3.43903">
        <ele>332</ele>
        <time>2021-10-21T09:30:20+02:00</time>
      </trkpt>
      <trkpt lat="43.75425" lon="3.4393">
        <ele>334</ele>
        <time>2021-10-21T09:30:37+02:00</time>
      </trkpt>
      <trkpt lat="43.75425" lon="3.43944">
        <ele>335</ele>
        <time>2021-10-21T09:30:48+02:00</time>
      </trkpt>
      <trkpt lat="43.75424" lon="3.43955">
        <ele>335</ele>
        <time>2021-10-21T09:30:55+02:00</time>
      </trkpt>
      <trkpt lat="43.75423" lon="3.43971">
        <ele>336</ele>
        <time>2021-10-21T09:31:05+02:00</time>
      </trkpt>
      <trkpt lat="43.75423" lon="3.43974">
        <ele>336</ele>
        <time>2021-10-21T09:31:07+02:00</time>
      </trkpt>
      <trkpt lat="43.75424" lon="3.44002">
        <ele>334</ele>
        <time>2021-10-21T09:31:24+02:00</time>
      </trkpt>
      <trkpt lat="43.75437" lon="3.44003">
        <ele>338</ele>
        <time>2021-10-21T09:31:38+02:00</time>
      </trkpt>
      <trkpt lat="43.75438" lon="3.44002">
        <ele>339</ele>
        <time>2021-10-21T09:31:40+02:00</time>
      </trkpt>
      <trkpt lat="43.75444" lon="3.43979">
        <ele>342</ele>
        <time>2021-10-21T09:31:56+02:00</time>
      </trkpt>
      <trkpt lat="43.75445" lon="3.43964">
        <ele>342</ele>
        <time>2021-10-21T09:32:08+02:00</time>
      </trkpt>
      <trkpt lat="43.75451" lon="3.43942">
        <ele>343</ele>
        <time>2021-10-21T09:32:24+02:00</time>
      </trkpt>
      <trkpt lat="43.75454" lon="3.43925">
        <ele>343</ele>
        <time>2021-10-21T09:32:36+02:00</time>
      </trkpt>
      <trkpt lat="43.75462" lon="3.43904">
        <ele>344</ele>
        <time>2021-10-21T09:32:54+02:00</time>
      </trkpt>
      <trkpt lat="43.7547" lon="3.43893">
        <ele>346</ele>
        <time>2021-10-21T09:33:08+02:00</time>
      </trkpt>
      <trkpt lat="43.75492" lon="3.43867">
        <ele>349</ele>
        <time>2021-10-21T09:33:38+02:00</time>
      </trkpt>
      <trkpt lat="43.75501" lon="3.43856">
        <ele>351</ele>
        <time>2021-10-21T09:33:51+02:00</time>
      </trkpt>
      <trkpt lat="43.75513" lon="3.43845">
        <ele>352</ele>
        <time>2021-10-21T09:34:03+02:00</time>
      </trkpt>
      <trkpt lat="43.75529" lon="3.43825">
        <ele>352</ele>
        <time>2021-10-21T09:34:28+02:00</time>
      </trkpt>
      <trkpt lat="43.75538" lon="3.43817">
        <ele>353</ele>
        <time>2021-10-21T09:34:41+02:00</time>
      </trkpt>
      <trkpt lat="43.75548" lon="3.43809">
        <ele>353</ele>
        <time>2021-10-21T09:34:52+02:00</time>
      </trkpt>
      <trkpt lat="43.75557" lon="3.43801">
        <ele>353</ele>
        <time>2021-10-21T09:35:03+02:00</time>
      </trkpt>
      <trkpt lat="43.75572" lon="3.43803">
        <ele>356</ele>
        <time>2021-10-21T09:35:17+02:00</time>
      </trkpt>
      <trkpt lat="43.75581" lon="3.43806">
        <ele>358</ele>
        <time>2021-10-21T09:35:25+02:00</time>
      </trkpt>
      <trkpt lat="43.7559" lon="3.43808">
        <ele>360</ele>
        <time>2021-10-21T09:35:32+02:00</time>
      </trkpt>
      <trkpt lat="43.75592" lon="3.43809">
        <ele>360</ele>
        <time>2021-10-21T09:35:34+02:00</time>
      </trkpt>
      <trkpt lat="43.75596" lon="3.43811">
        <ele>361</ele>
        <time>2021-10-21T09:35:38+02:00</time>
      </trkpt>
      <trkpt lat="43.75605" lon="3.43812">
        <ele>363</ele>
        <time>2021-10-21T09:35:48+02:00</time>
      </trkpt>
      <trkpt lat="43.75615" lon="3.43814">
        <ele>365</ele>
        <time>2021-10-21T09:35:58+02:00</time>
      </trkpt>
      <trkpt lat="43.75623" lon="3.43815">
        <ele>365</ele>
        <time>2021-10-21T09:36:05+02:00</time>
      </trkpt>
      <trkpt lat="43.75631" lon="3.43814">
        <ele>365</ele>
        <time>2021-10-21T09:36:15+02:00</time>
      </trkpt>
      <trkpt lat="43.75633" lon="3.43814">
        <ele>365</ele>
        <time>2021-10-21T09:36:16+02:00</time>
      </trkpt>
      <trkpt lat="43.7565" lon="3.43807">
        <ele>363</ele>
        <time>2021-10-21T09:36:34+02:00</time>
      </trkpt>
      <trkpt lat="43.75666" lon="3.43801">
        <ele>363</ele>
        <time>2021-10-21T09:36:49+02:00</time>
      </trkpt>
      <trkpt lat="43.75678" lon="3.43804">
        <ele>363</ele>
        <time>2021-10-21T09:37:06+02:00</time>
      </trkpt>
      <trkpt lat="43.75696" lon="3.43808">
        <ele>365</ele>
        <time>2021-10-21T09:37:19+02:00</time>
      </trkpt>
      <trkpt lat="43.75706" lon="3.43812">
        <ele>366</ele>
        <time>2021-10-21T09:37:34+02:00</time>
      </trkpt>
      <trkpt lat="43.75714" lon="3.43818">
        <ele>368</ele>
        <time>2021-10-21T09:37:48+02:00</time>
      </trkpt>
      <trkpt lat="43.75718" lon="3.43822">
        <ele>369</ele>
        <time>2021-10-21T09:37:56+02:00</time>
      </trkpt>
      <trkpt lat="43.75721" lon="3.43824">
        <ele>370</ele>
        <time>2021-10-21T09:37:59+02:00</time>
      </trkpt>
      <trkpt lat="43.75723" lon="3.43826">
        <ele>371</ele>
        <time>2021-10-21T09:38:01+02:00</time>
      </trkpt>
      <trkpt lat="43.75739" lon="3.43837">
        <ele>377</ele>
        <time>2021-10-21T09:38:15+02:00</time>
      </trkpt>
      <trkpt lat="43.75742" lon="3.43838">
        <ele>378</ele>
        <time>2021-10-21T09:38:21+02:00</time>
      </trkpt>
      <trkpt lat="43.75749" lon="3.43842">
        <ele>380</ele>
        <time>2021-10-21T09:38:27+02:00</time>
      </trkpt>
      <trkpt lat="43.75761" lon="3.43838">
        <ele>379</ele>
        <time>2021-10-21T09:38:40+02:00</time>
      </trkpt>
      <trkpt lat="43.75768" lon="3.4383">
        <ele>375</ele>
        <time>2021-10-21T09:38:52+02:00</time>
      </trkpt>
      <trkpt lat="43.75781" lon="3.43824">
        <ele>373</ele>
        <time>2021-10-21T09:39:04+02:00</time>
      </trkpt>
      <trkpt lat="43.75791" lon="3.4382">
        <ele>371</ele>
        <time>2021-10-21T09:39:14+02:00</time>
      </trkpt>
      <trkpt lat="43.75801" lon="3.43821">
        <ele>371</ele>
        <time>2021-10-21T09:39:25+02:00</time>
      </trkpt>
      <trkpt lat="43.75813" lon="3.43827">
        <ele>372</ele>
        <time>2021-10-21T09:39:38+02:00</time>
      </trkpt>
      <trkpt lat="43.75824" lon="3.43839">
        <ele>377</ele>
        <time>2021-10-21T09:39:54+02:00</time>
      </trkpt>
      <trkpt lat="43.7583" lon="3.43847">
        <ele>380</ele>
        <time>2021-10-21T09:39:59+02:00</time>
      </trkpt>
      <trkpt lat="43.75859" lon="3.43867">
        <ele>383</ele>
        <time>2021-10-21T09:40:24+02:00</time>
      </trkpt>
      <trkpt lat="43.75874" lon="3.43877">
        <ele>384</ele>
        <time>2021-10-21T09:40:37+02:00</time>
      </trkpt>
      <trkpt lat="43.75882" lon="3.43886">
        <ele>387</ele>
        <time>2021-10-21T09:40:46+02:00</time>
      </trkpt>
      <trkpt lat="43.75893" lon="3.43892">
        <ele>387</ele>
        <time>2021-10-21T09:40:59+02:00</time>
      </trkpt>
      <trkpt lat="43.75901" lon="3.43896">
        <ele>386</ele>
        <time>2021-10-21T09:41:09+02:00</time>
      </trkpt>
      <trkpt lat="43.75908" lon="3.43901">
        <ele>387</ele>
        <time>2021-10-21T09:41:21+02:00</time>
      </trkpt>
      <trkpt lat="43.75915" lon="3.43905">
        <ele>387</ele>
        <time>2021-10-21T09:41:30+02:00</time>
      </trkpt>
      <trkpt lat="43.75928" lon="3.43913">
        <ele>388</ele>
        <time>2021-10-21T09:41:43+02:00</time>
      </trkpt>
      <trkpt lat="43.75938" lon="3.43922">
        <ele>390</ele>
        <time>2021-10-21T09:41:55+02:00</time>
      </trkpt>
      <trkpt lat="43.7595" lon="3.4393">
        <ele>391</ele>
        <time>2021-10-21T09:42:10+02:00</time>
      </trkpt>
      <trkpt lat="43.75966" lon="3.43933">
        <ele>391</ele>
        <time>2021-10-21T09:42:24+02:00</time>
      </trkpt>
      <trkpt lat="43.75978" lon="3.43946">
        <ele>395</ele>
        <time>2021-10-21T09:42:45+02:00</time>
      </trkpt>
      <trkpt lat="43.75969" lon="3.43953">
        <ele>397</ele>
        <time>2021-10-21T09:43:06+02:00</time>
      </trkpt>
      <trkpt lat="43.75955" lon="3.43941">
        <ele>395</ele>
        <time>2021-10-21T09:43:25+02:00</time>
      </trkpt>
      <trkpt lat="43.75941" lon="3.43933">
        <ele>394</ele>
        <time>2021-10-21T09:43:42+02:00</time>
      </trkpt>
      <trkpt lat="43.75926" lon="3.43924">
        <ele>393</ele>
        <time>2021-10-21T09:43:57+02:00</time>
      </trkpt>
      <trkpt lat="43.75908" lon="3.43917">
        <ele>393</ele>
        <time>2021-10-21T09:44:09+02:00</time>
      </trkpt>
      <trkpt lat="43.75894" lon="3.43913">
        <ele>393</ele>
        <time>2021-10-21T09:44:22+02:00</time>
      </trkpt>
      <trkpt lat="43.75889" lon="3.43913">
        <ele>394</ele>
        <time>2021-10-21T09:44:27+02:00</time>
      </trkpt>
      <trkpt lat="43.75874" lon="3.43915">
        <ele>395</ele>
        <time>2021-10-21T09:44:41+02:00</time>
      </trkpt>
      <trkpt lat="43.75861" lon="3.43915">
        <ele>396</ele>
        <time>2021-10-21T09:44:55+02:00</time>
      </trkpt>
      <trkpt lat="43.75841" lon="3.43929">
        <ele>401</ele>
        <time>2021-10-21T09:45:12+02:00</time>
      </trkpt>
      <trkpt lat="43.75826" lon="3.43924">
        <ele>400</ele>
        <time>2021-10-21T09:45:28+02:00</time>
      </trkpt>
      <trkpt lat="43.75826" lon="3.43924">
        <ele>400</ele>
        <time>2021-10-21T09:45:29+02:00</time>
      </trkpt>
      <trkpt lat="43.75815" lon="3.43918">
        <ele>400</ele>
        <time>2021-10-21T09:45:41+02:00</time>
      </trkpt>
      <trkpt lat="43.75795" lon="3.43917">
        <ele>402</ele>
        <time>2021-10-21T09:46:01+02:00</time>
      </trkpt>
      <trkpt lat="43.75779" lon="3.43913">
        <ele>402</ele>
        <time>2021-10-21T09:46:17+02:00</time>
      </trkpt>
      <trkpt lat="43.75766" lon="3.4392">
        <ele>405</ele>
        <time>2021-10-21T09:46:35+02:00</time>
      </trkpt>
      <trkpt lat="43.75765" lon="3.4392">
        <ele>404</ele>
        <time>2021-10-21T09:46:36+02:00</time>
      </trkpt>
      <trkpt lat="43.75754" lon="3.43923">
        <ele>406</ele>
        <time>2021-10-21T09:46:48+02:00</time>
      </trkpt>
      <trkpt lat="43.75743" lon="3.43923">
        <ele>406</ele>
        <time>2021-10-21T09:46:59+02:00</time>
      </trkpt>
      <trkpt lat="43.75733" lon="3.43933">
        <ele>411</ele>
        <time>2021-10-21T09:47:11+02:00</time>
      </trkpt>
      <trkpt lat="43.75717" lon="3.4393">
        <ele>410</ele>
        <time>2021-10-21T09:47:23+02:00</time>
      </trkpt>
      <trkpt lat="43.75706" lon="3.43929">
        <ele>410</ele>
        <time>2021-10-21T09:47:35+02:00</time>
      </trkpt>
      <trkpt lat="43.75693" lon="3.43936">
        <ele>412</ele>
        <time>2021-10-21T09:47:49+02:00</time>
      </trkpt>
      <trkpt lat="43.7568" lon="3.43942">
        <ele>414</ele>
        <time>2021-10-21T09:48:04+02:00</time>
      </trkpt>
      <trkpt lat="43.75671" lon="3.43944">
        <ele>415</ele>
        <time>2021-10-21T09:48:14+02:00</time>
      </trkpt>
      <trkpt lat="43.75668" lon="3.43948">
        <ele>417</ele>
        <time>2021-10-21T09:48:19+02:00</time>
      </trkpt>
      <trkpt lat="43.7566" lon="3.4398">
        <ele>428</ele>
        <time>2021-10-21T09:48:25+02:00</time>
      </trkpt>
      <trkpt lat="43.75666" lon="3.43985">
        <ele>430</ele>
        <time>2021-10-21T09:48:41+02:00</time>
      </trkpt>
      <trkpt lat="43.75675" lon="3.43985">
        <ele>430</ele>
        <time>2021-10-21T09:48:54+02:00</time>
      </trkpt>
      <trkpt lat="43.75686" lon="3.4398">
        <ele>429</ele>
        <time>2021-10-21T09:49:12+02:00</time>
      </trkpt>
      <trkpt lat="43.75704" lon="3.43985">
        <ele>430</ele>
        <time>2021-10-21T09:49:33+02:00</time>
      </trkpt>
      <trkpt lat="43.75721" lon="3.4399">
        <ele>430</ele>
        <time>2021-10-21T09:49:52+02:00</time>
      </trkpt>
      <trkpt lat="43.75731" lon="3.43993">
        <ele>430</ele>
        <time>2021-10-21T09:50:00+02:00</time>
      </trkpt>
      <trkpt lat="43.75745" lon="3.43994">
        <ele>430</ele>
        <time>2021-10-21T09:50:14+02:00</time>
      </trkpt>
      <trkpt lat="43.75752" lon="3.4398">
        <ele>426</ele>
        <time>2021-10-21T09:50:21+02:00</time>
      </trkpt>
      <trkpt lat="43.75763" lon="3.43972">
        <ele>423</ele>
        <time>2021-10-21T09:50:31+02:00</time>
      </trkpt>
      <trkpt lat="43.75783" lon="3.43981">
        <ele>424</ele>
        <time>2021-10-21T09:50:56+02:00</time>
      </trkpt>
      <trkpt lat="43.75787" lon="3.43994">
        <ele>428</ele>
        <time>2021-10-21T09:51:14+02:00</time>
      </trkpt>
      <trkpt lat="43.75776" lon="3.43996">
        <ele>429</ele>
        <time>2021-10-21T09:51:29+02:00</time>
      </trkpt>
      <trkpt lat="43.75765" lon="3.43998">
        <ele>430</ele>
        <time>2021-10-21T09:51:41+02:00</time>
      </trkpt>
      <trkpt lat="43.75752" lon="3.43991">
        <ele>429</ele>
        <time>2021-10-21T09:51:52+02:00</time>
      </trkpt>
      <trkpt lat="43.75745" lon="3.43992">
        <ele>429</ele>
        <time>2021-10-21T09:51:57+02:00</time>
      </trkpt>
      <trkpt lat="43.75734" lon="3.43987">
        <ele>428</ele>
        <time>2021-10-21T09:52:10+02:00</time>
      </trkpt>
      <trkpt lat="43.75723" lon="3.43979">
        <ele>427</ele>
        <time>2021-10-21T09:52:20+02:00</time>
      </trkpt>
      <trkpt lat="43.75711" lon="3.43977">
        <ele>427</ele>
        <time>2021-10-21T09:52:30+02:00</time>
      </trkpt>
      <trkpt lat="43.75679" lon="3.4399">
        <ele>432</ele>
        <time>2021-10-21T09:53:01+02:00</time>
      </trkpt>
      <trkpt lat="43.75678" lon="3.43991">
        <ele>432</ele>
        <time>2021-10-21T09:53:02+02:00</time>
      </trkpt>
      <trkpt lat="43.7567" lon="3.44003">
        <ele>435</ele>
        <time>2021-10-21T09:53:14+02:00</time>
      </trkpt>
      <trkpt lat="43.75669" lon="3.44006">
        <ele>435</ele>
        <time>2021-10-21T09:53:16+02:00</time>
      </trkpt>
      <trkpt lat="43.75662" lon="3.44018">
        <ele>436</ele>
        <time>2021-10-21T09:53:28+02:00</time>
      </trkpt>
      <trkpt lat="43.75655" lon="3.44038">
        <ele>438</ele>
        <time>2021-10-21T09:53:41+02:00</time>
      </trkpt>
      <trkpt lat="43.75656" lon="3.44054">
        <ele>440</ele>
        <time>2021-10-21T09:53:53+02:00</time>
      </trkpt>
      <trkpt lat="43.75657" lon="3.4406">
        <ele>440</ele>
        <time>2021-10-21T09:54:00+02:00</time>
      </trkpt>
      <trkpt lat="43.75661" lon="3.44084">
        <ele>443</ele>
        <time>2021-10-21T09:54:19+02:00</time>
      </trkpt>
      <trkpt lat="43.7567" lon="3.44106">
        <ele>446</ele>
        <time>2021-10-21T09:54:41+02:00</time>
      </trkpt>
      <trkpt lat="43.75692" lon="3.44135">
        <ele>453</ele>
        <time>2021-10-21T09:55:17+02:00</time>
      </trkpt>
      <trkpt lat="43.75704" lon="3.44161">
        <ele>460</ele>
        <time>2021-10-21T09:55:46+02:00</time>
      </trkpt>
      <trkpt lat="43.75708" lon="3.44175">
        <ele>462</ele>
        <time>2021-10-21T09:56:13+02:00</time>
      </trkpt>
      <trkpt lat="43.75706" lon="3.4419">
        <ele>463</ele>
        <time>2021-10-21T09:56:38+02:00</time>
      </trkpt>
      <trkpt lat="43.75703" lon="3.44195">
        <ele>462</ele>
        <time>2021-10-21T09:57:06+02:00</time>
      </trkpt>
      <trkpt lat="43.75705" lon="3.44198">
        <ele>463</ele>
        <time>2021-10-21T09:57:29+02:00</time>
      </trkpt>
      <trkpt lat="43.75706" lon="3.44201">
        <ele>463</ele>
        <time>2021-10-21T09:58:11+02:00</time>
      </trkpt>
      <trkpt lat="43.75705" lon="3.442">
        <ele>463</ele>
        <time>2021-10-21T09:59:02+02:00</time>
      </trkpt>
      <trkpt lat="43.75703" lon="3.44207">
        <ele>462</ele>
        <time>2021-10-21T09:59:22+02:00</time>
      </trkpt>
      <trkpt lat="43.75703" lon="3.4421">
        <ele>462</ele>
        <time>2021-10-21T09:59:25+02:00</time>
      </trkpt>
      <trkpt lat="43.7571" lon="3.4424">
        <ele>464</ele>
        <time>2021-10-21T09:59:45+02:00</time>
      </trkpt>
      <trkpt lat="43.75717" lon="3.44266">
        <ele>465</ele>
        <time>2021-10-21T10:00:05+02:00</time>
      </trkpt>
      <trkpt lat="43.75719" lon="3.44277">
        <ele>465</ele>
        <time>2021-10-21T10:00:14+02:00</time>
      </trkpt>
      <trkpt lat="43.75721" lon="3.44284">
        <ele>465</ele>
        <time>2021-10-21T10:00:19+02:00</time>
      </trkpt>
      <trkpt lat="43.75725" lon="3.44296">
        <ele>465</ele>
        <time>2021-10-21T10:00:28+02:00</time>
      </trkpt>
      <trkpt lat="43.75734" lon="3.44327">
        <ele>463</ele>
        <time>2021-10-21T10:00:49+02:00</time>
      </trkpt>
      <trkpt lat="43.75756" lon="3.44348">
        <ele>465</ele>
        <time>2021-10-21T10:01:17+02:00</time>
      </trkpt>
      <trkpt lat="43.75767" lon="3.44355">
        <ele>467</ele>
        <time>2021-10-21T10:01:29+02:00</time>
      </trkpt>
      <trkpt lat="43.75778" lon="3.44371">
        <ele>470</ele>
        <time>2021-10-21T10:01:46+02:00</time>
      </trkpt>
      <trkpt lat="43.75781" lon="3.44387">
        <ele>471</ele>
        <time>2021-10-21T10:01:57+02:00</time>
      </trkpt>
      <trkpt lat="43.75783" lon="3.44412">
        <ele>473</ele>
        <time>2021-10-21T10:02:17+02:00</time>
      </trkpt>
      <trkpt lat="43.75788" lon="3.44441">
        <ele>476</ele>
        <time>2021-10-21T10:02:42+02:00</time>
      </trkpt>
      <trkpt lat="43.7579" lon="3.44461">
        <ele>477</ele>
        <time>2021-10-21T10:02:58+02:00</time>
      </trkpt>
      <trkpt lat="43.75792" lon="3.44468">
        <ele>478</ele>
        <time>2021-10-21T10:03:03+02:00</time>
      </trkpt>
      <trkpt lat="43.75794" lon="3.44481">
        <ele>479</ele>
        <time>2021-10-21T10:03:15+02:00</time>
      </trkpt>
      <trkpt lat="43.75795" lon="3.44491">
        <ele>479</ele>
        <time>2021-10-21T10:03:23+02:00</time>
      </trkpt>
      <trkpt lat="43.75799" lon="3.44512">
        <ele>479</ele>
        <time>2021-10-21T10:03:35+02:00</time>
      </trkpt>
      <trkpt lat="43.75809" lon="3.44543">
        <ele>481</ele>
        <time>2021-10-21T10:04:03+02:00</time>
      </trkpt>
      <trkpt lat="43.75816" lon="3.4456">
        <ele>483</ele>
        <time>2021-10-21T10:04:18+02:00</time>
      </trkpt>
      <trkpt lat="43.75824" lon="3.44592">
        <ele>486</ele>
        <time>2021-10-21T10:04:45+02:00</time>
      </trkpt>
      <trkpt lat="43.75825" lon="3.44609">
        <ele>485</ele>
        <time>2021-10-21T10:04:58+02:00</time>
      </trkpt>
      <trkpt lat="43.75836" lon="3.44628">
        <ele>489</ele>
        <time>2021-10-21T10:05:18+02:00</time>
      </trkpt>
      <trkpt lat="43.7585" lon="3.44658">
        <ele>493</ele>
        <time>2021-10-21T10:05:51+02:00</time>
      </trkpt>
      <trkpt lat="43.75862" lon="3.44671">
        <ele>497</ele>
        <time>2021-10-21T10:06:09+02:00</time>
      </trkpt>
      <trkpt lat="43.7587" lon="3.44687">
        <ele>499</ele>
        <time>2021-10-21T10:06:28+02:00</time>
      </trkpt>
      <trkpt lat="43.75871" lon="3.44688">
        <ele>499</ele>
        <time>2021-10-21T10:06:29+02:00</time>
      </trkpt>
      <trkpt lat="43.75876" lon="3.44694">
        <ele>501</ele>
        <time>2021-10-21T10:06:36+02:00</time>
      </trkpt>
      <trkpt lat="43.75886" lon="3.44708">
        <ele>504</ele>
        <time>2021-10-21T10:06:52+02:00</time>
      </trkpt>
      <trkpt lat="43.75892" lon="3.44716">
        <ele>506</ele>
        <time>2021-10-21T10:07:02+02:00</time>
      </trkpt>
      <trkpt lat="43.75893" lon="3.44717">
        <ele>506</ele>
        <time>2021-10-21T10:07:03+02:00</time>
      </trkpt>
      <trkpt lat="43.759" lon="3.44726">
        <ele>509</ele>
        <time>2021-10-21T10:07:16+02:00</time>
      </trkpt>
      <trkpt lat="43.75901" lon="3.44728">
        <ele>509</ele>
        <time>2021-10-21T10:07:18+02:00</time>
      </trkpt>
      <trkpt lat="43.75901" lon="3.44732">
        <ele>509</ele>
        <time>2021-10-21T10:07:21+02:00</time>
      </trkpt>
      <trkpt lat="43.75901" lon="3.44744">
        <ele>509</ele>
        <time>2021-10-21T10:07:34+02:00</time>
      </trkpt>
      <trkpt lat="43.75906" lon="3.44754">
        <ele>510</ele>
        <time>2021-10-21T10:07:46+02:00</time>
      </trkpt>
      <trkpt lat="43.75917" lon="3.44758">
        <ele>513</ele>
        <time>2021-10-21T10:08:08+02:00</time>
      </trkpt>
      <trkpt lat="43.75934" lon="3.44765">
        <ele>517</ele>
        <time>2021-10-21T10:08:30+02:00</time>
      </trkpt>
      <trkpt lat="43.7595" lon="3.44772">
        <ele>521</ele>
        <time>2021-10-21T10:08:54+02:00</time>
      </trkpt>
      <trkpt lat="43.75961" lon="3.44783">
        <ele>525</ele>
        <time>2021-10-21T10:09:18+02:00</time>
      </trkpt>
      <trkpt lat="43.75974" lon="3.44802">
        <ele>529</ele>
        <time>2021-10-21T10:09:41+02:00</time>
      </trkpt>
      <trkpt lat="43.75987" lon="3.44807">
        <ele>535</ele>
        <time>2021-10-21T10:10:05+02:00</time>
      </trkpt>
      <trkpt lat="43.75997" lon="3.44809">
        <ele>539</ele>
        <time>2021-10-21T10:10:28+02:00</time>
      </trkpt>
      <trkpt lat="43.76008" lon="3.44829">
        <ele>541</ele>
        <time>2021-10-21T10:10:53+02:00</time>
      </trkpt>
      <trkpt lat="43.76016" lon="3.44838">
        <ele>544</ele>
        <time>2021-10-21T10:11:14+02:00</time>
      </trkpt>
      <trkpt lat="43.76027" lon="3.44849">
        <ele>548</ele>
        <time>2021-10-21T10:11:36+02:00</time>
      </trkpt>
      <trkpt lat="43.76041" lon="3.44857">
        <ele>556</ele>
        <time>2021-10-21T10:11:59+02:00</time>
      </trkpt>
      <trkpt lat="43.76049" lon="3.44877">
        <ele>557</ele>
        <time>2021-10-21T10:12:21+02:00</time>
      </trkpt>
      <trkpt lat="43.76053" lon="3.44895">
        <ele>556</ele>
        <time>2021-10-21T10:12:34+02:00</time>
      </trkpt>
      <trkpt lat="43.76061" lon="3.44915">
        <ele>557</ele>
        <time>2021-10-21T10:12:55+02:00</time>
      </trkpt>
      <trkpt lat="43.76071" lon="3.44934">
        <ele>560</ele>
        <time>2021-10-21T10:13:14+02:00</time>
      </trkpt>
      <trkpt lat="43.76079" lon="3.44956">
        <ele>562</ele>
        <time>2021-10-21T10:13:39+02:00</time>
      </trkpt>
      <trkpt lat="43.76084" lon="3.44971">
        <ele>563</ele>
        <time>2021-10-21T10:13:58+02:00</time>
      </trkpt>
      <trkpt lat="43.76088" lon="3.44986">
        <ele>561</ele>
        <time>2021-10-21T10:14:18+02:00</time>
      </trkpt>
      <trkpt lat="43.76099" lon="3.44998">
        <ele>566</ele>
        <time>2021-10-21T10:14:39+02:00</time>
      </trkpt>
      <trkpt lat="43.76109" lon="3.45007">
        <ele>571</ele>
        <time>2021-10-21T10:15:06+02:00</time>
      </trkpt>
      <trkpt lat="43.76114" lon="3.45013">
        <ele>572</ele>
        <time>2021-10-21T10:15:14+02:00</time>
      </trkpt>
      <trkpt lat="43.76127" lon="3.45039">
        <ele>573</ele>
        <time>2021-10-21T10:15:40+02:00</time>
      </trkpt>
      <trkpt lat="43.7613" lon="3.45043">
        <ele>573</ele>
        <time>2021-10-21T10:15:46+02:00</time>
      </trkpt>
      <trkpt lat="43.76133" lon="3.45045">
        <ele>574</ele>
        <time>2021-10-21T10:15:50+02:00</time>
      </trkpt>
      <trkpt lat="43.76143" lon="3.45048">
        <ele>579</ele>
        <time>2021-10-21T10:16:06+02:00</time>
      </trkpt>
      <trkpt lat="43.76154" lon="3.45071">
        <ele>577</ele>
        <time>2021-10-21T10:16:29+02:00</time>
      </trkpt>
      <trkpt lat="43.76164" lon="3.4508">
        <ele>579</ele>
        <time>2021-10-21T10:16:44+02:00</time>
      </trkpt>
      <trkpt lat="43.76178" lon="3.45101">
        <ele>582</ele>
        <time>2021-10-21T10:17:07+02:00</time>
      </trkpt>
      <trkpt lat="43.7618" lon="3.45102">
        <ele>584</ele>
        <time>2021-10-21T10:17:12+02:00</time>
      </trkpt>
      <trkpt lat="43.76191" lon="3.45122">
        <ele>583</ele>
        <time>2021-10-21T10:17:35+02:00</time>
      </trkpt>
      <trkpt lat="43.76206" lon="3.45138">
        <ele>584</ele>
        <time>2021-10-21T10:18:00+02:00</time>
      </trkpt>
      <trkpt lat="43.76219" lon="3.45149">
        <ele>587</ele>
        <time>2021-10-21T10:18:19+02:00</time>
      </trkpt>
      <trkpt lat="43.76219" lon="3.45149">
        <ele>587</ele>
        <time>2021-10-21T10:18:20+02:00</time>
      </trkpt>
      <trkpt lat="43.76238" lon="3.45173">
        <ele>592</ele>
        <time>2021-10-21T10:18:38+02:00</time>
      </trkpt>
      <trkpt lat="43.76246" lon="3.452">
        <ele>590</ele>
        <time>2021-10-21T10:19:03+02:00</time>
      </trkpt>
      <trkpt lat="43.76253" lon="3.45212">
        <ele>590</ele>
        <time>2021-10-21T10:19:20+02:00</time>
      </trkpt>
      <trkpt lat="43.7626" lon="3.45242">
        <ele>592</ele>
        <time>2021-10-21T10:19:45+02:00</time>
      </trkpt>
      <trkpt lat="43.76257" lon="3.45244">
        <ele>591</ele>
        <time>2021-10-21T10:19:48+02:00</time>
      </trkpt>
      <trkpt lat="43.76237" lon="3.45245">
        <ele>588</ele>
        <time>2021-10-21T10:20:13+02:00</time>
      </trkpt>
      <trkpt lat="43.76236" lon="3.45257">
        <ele>592</ele>
        <time>2021-10-21T10:20:32+02:00</time>
      </trkpt>
      <trkpt lat="43.76248" lon="3.45273">
        <ele>597</ele>
        <time>2021-10-21T10:20:58+02:00</time>
      </trkpt>
      <trkpt lat="43.76256" lon="3.45294">
        <ele>606</ele>
        <time>2021-10-21T10:21:24+02:00</time>
      </trkpt>
      <trkpt lat="43.76261" lon="3.45294">
        <ele>606</ele>
        <time>2021-10-21T10:21:41+02:00</time>
      </trkpt>
      <trkpt lat="43.76271" lon="3.45299">
        <ele>607</ele>
        <time>2021-10-21T10:22:04+02:00</time>
      </trkpt>
      <trkpt lat="43.76271" lon="3.45306">
        <ele>610</ele>
        <time>2021-10-21T10:22:10+02:00</time>
      </trkpt>
      <trkpt lat="43.76272" lon="3.45305">
        <ele>609</ele>
        <time>2021-10-21T10:22:23+02:00</time>
      </trkpt>
      <trkpt lat="43.76269" lon="3.45301">
        <ele>608</ele>
        <time>2021-10-21T10:22:26+02:00</time>
      </trkpt>
      <trkpt lat="43.76263" lon="3.45296">
        <ele>607</ele>
        <time>2021-10-21T10:22:30+02:00</time>
      </trkpt>
      <trkpt lat="43.76242" lon="3.45296">
        <ele>608</ele>
        <time>2021-10-21T10:22:47+02:00</time>
      </trkpt>
      <trkpt lat="43.76237" lon="3.45298">
        <ele>610</ele>
        <time>2021-10-21T10:22:51+02:00</time>
      </trkpt>
      <trkpt lat="43.76225" lon="3.45293">
        <ele>608</ele>
        <time>2021-10-21T10:23:07+02:00</time>
      </trkpt>
      <trkpt lat="43.76216" lon="3.45289">
        <ele>607</ele>
        <time>2021-10-21T10:23:26+02:00</time>
      </trkpt>
      <trkpt lat="43.76202" lon="3.45285">
        <ele>605</ele>
        <time>2021-10-21T10:23:44+02:00</time>
      </trkpt>
      <trkpt lat="43.76186" lon="3.45276">
        <ele>602</ele>
        <time>2021-10-21T10:24:04+02:00</time>
      </trkpt>
      <trkpt lat="43.76176" lon="3.45271">
        <ele>600</ele>
        <time>2021-10-21T10:24:22+02:00</time>
      </trkpt>
      <trkpt lat="43.76164" lon="3.45265">
        <ele>599</ele>
        <time>2021-10-21T10:24:42+02:00</time>
      </trkpt>
      <trkpt lat="43.76159" lon="3.45258">
        <ele>595</ele>
        <time>2021-10-21T10:24:49+02:00</time>
      </trkpt>
      <trkpt lat="43.76149" lon="3.45242">
        <ele>590</ele>
        <time>2021-10-21T10:25:05+02:00</time>
      </trkpt>
      <trkpt lat="43.76142" lon="3.4524">
        <ele>589</ele>
        <time>2021-10-21T10:25:13+02:00</time>
      </trkpt>
      <trkpt lat="43.76134" lon="3.45239">
        <ele>589</ele>
        <time>2021-10-21T10:25:27+02:00</time>
      </trkpt>
      <trkpt lat="43.7613" lon="3.45226">
        <ele>584</ele>
        <time>2021-10-21T10:25:43+02:00</time>
      </trkpt>
      <trkpt lat="43.76128" lon="3.4522">
        <ele>582</ele>
        <time>2021-10-21T10:25:47+02:00</time>
      </trkpt>
      <trkpt lat="43.76124" lon="3.45215">
        <ele>580</ele>
        <time>2021-10-21T10:26:03+02:00</time>
      </trkpt>
      <trkpt lat="43.76111" lon="3.45235">
        <ele>586</ele>
        <time>2021-10-21T10:26:25+02:00</time>
      </trkpt>
      <trkpt lat="43.761" lon="3.4525">
        <ele>590</ele>
        <time>2021-10-21T10:26:41+02:00</time>
      </trkpt>
      <trkpt lat="43.76092" lon="3.45254">
        <ele>590</ele>
        <time>2021-10-21T10:26:58+02:00</time>
      </trkpt>
      <trkpt lat="43.7609" lon="3.45255">
        <ele>590</ele>
        <time>2021-10-21T10:27:00+02:00</time>
      </trkpt>
      <trkpt lat="43.76098" lon="3.45258">
        <ele>592</ele>
        <time>2021-10-21T10:30:32+02:00</time>
      </trkpt>
      <trkpt lat="43.76104" lon="3.45264">
        <ele>595</ele>
        <time>2021-10-21T10:30:43+02:00</time>
      </trkpt>
      <trkpt lat="43.76103" lon="3.45271">
        <ele>597</ele>
        <time>2021-10-21T10:30:48+02:00</time>
      </trkpt>
      <trkpt lat="43.761" lon="3.45278">
        <ele>599</ele>
        <time>2021-10-21T10:31:01+02:00</time>
      </trkpt>
      <trkpt lat="43.76102" lon="3.45287">
        <ele>603</ele>
        <time>2021-10-21T10:31:21+02:00</time>
      </trkpt>
      <trkpt lat="43.76108" lon="3.45303">
        <ele>610</ele>
        <time>2021-10-21T10:31:46+02:00</time>
      </trkpt>
      <trkpt lat="43.76121" lon="3.45307">
        <ele>613</ele>
        <time>2021-10-21T10:32:11+02:00</time>
      </trkpt>
      <trkpt lat="43.76133" lon="3.45305">
        <ele>613</ele>
        <time>2021-10-21T10:32:33+02:00</time>
      </trkpt>
      <trkpt lat="43.76145" lon="3.45302">
        <ele>613</ele>
        <time>2021-10-21T10:32:53+02:00</time>
      </trkpt>
      <trkpt lat="43.76157" lon="3.45305">
        <ele>614</ele>
        <time>2021-10-21T10:33:12+02:00</time>
      </trkpt>
      <trkpt lat="43.76167" lon="3.45311">
        <ele>617</ele>
        <time>2021-10-21T10:33:36+02:00</time>
      </trkpt>
      <trkpt lat="43.76177" lon="3.45314">
        <ele>618</ele>
        <time>2021-10-21T10:33:52+02:00</time>
      </trkpt>
      <trkpt lat="43.76192" lon="3.4532">
        <ele>621</ele>
        <time>2021-10-21T10:34:12+02:00</time>
      </trkpt>
      <trkpt lat="43.76207" lon="3.45322">
        <ele>622</ele>
        <time>2021-10-21T10:34:30+02:00</time>
      </trkpt>
      <trkpt lat="43.76218" lon="3.45327">
        <ele>623</ele>
        <time>2021-10-21T10:34:51+02:00</time>
      </trkpt>
      <trkpt lat="43.76225" lon="3.45335">
        <ele>626</ele>
        <time>2021-10-21T10:35:09+02:00</time>
      </trkpt>
      <trkpt lat="43.76234" lon="3.45341">
        <ele>627</ele>
        <time>2021-10-21T10:35:24+02:00</time>
      </trkpt>
      <trkpt lat="43.76237" lon="3.45346">
        <ele>629</ele>
        <time>2021-10-21T10:35:48+02:00</time>
      </trkpt>
      <trkpt lat="43.7624" lon="3.45349">
        <ele>630</ele>
        <time>2021-10-21T10:35:55+02:00</time>
      </trkpt>
      <trkpt lat="43.76251" lon="3.4536">
        <ele>632</ele>
        <time>2021-10-21T10:36:11+02:00</time>
      </trkpt>
      <trkpt lat="43.76253" lon="3.45368">
        <ele>635</ele>
        <time>2021-10-21T10:36:27+02:00</time>
      </trkpt>
      <trkpt lat="43.76267" lon="3.45381">
        <ele>640</ele>
        <time>2021-10-21T10:36:51+02:00</time>
      </trkpt>
      <trkpt lat="43.76282" lon="3.45385">
        <ele>643</ele>
        <time>2021-10-21T10:37:09+02:00</time>
      </trkpt>
      <trkpt lat="43.7629" lon="3.4539">
        <ele>645</ele>
        <time>2021-10-21T10:37:22+02:00</time>
      </trkpt>
      <trkpt lat="43.76297" lon="3.45394">
        <ele>649</ele>
        <time>2021-10-21T10:37:43+02:00</time>
      </trkpt>
      <trkpt lat="43.76307" lon="3.45403">
        <ele>655</ele>
        <time>2021-10-21T10:38:05+02:00</time>
      </trkpt>
      <trkpt lat="43.76313" lon="3.45405">
        <ele>657</ele>
        <time>2021-10-21T10:38:23+02:00</time>
      </trkpt>
      <trkpt lat="43.76314" lon="3.45405">
        <ele>657</ele>
        <time>2021-10-21T10:38:26+02:00</time>
      </trkpt>
      <trkpt lat="43.76324" lon="3.45408">
        <ele>661</ele>
        <time>2021-10-21T10:38:49+02:00</time>
      </trkpt>
      <trkpt lat="43.76327" lon="3.4541">
        <ele>662</ele>
        <time>2021-10-21T10:38:54+02:00</time>
      </trkpt>
      <trkpt lat="43.76334" lon="3.45416">
        <ele>666</ele>
        <time>2021-10-21T10:39:08+02:00</time>
      </trkpt>
      <trkpt lat="43.76337" lon="3.45418">
        <ele>667</ele>
        <time>2021-10-21T10:39:11+02:00</time>
      </trkpt>
      <trkpt lat="43.76346" lon="3.45416">
        <ele>668</ele>
        <time>2021-10-21T10:39:28+02:00</time>
      </trkpt>
      <trkpt lat="43.7635" lon="3.45413">
        <ele>668</ele>
        <time>2021-10-21T10:39:46+02:00</time>
      </trkpt>
      <trkpt lat="43.76345" lon="3.45418">
        <ele>669</ele>
        <time>2021-10-21T10:39:59+02:00</time>
      </trkpt>
      <trkpt lat="43.76351" lon="3.45426">
        <ele>674</ele>
        <time>2021-10-21T10:40:24+02:00</time>
      </trkpt>
      <trkpt lat="43.76359" lon="3.45419">
        <ele>672</ele>
        <time>2021-10-21T10:40:44+02:00</time>
      </trkpt>
      <trkpt lat="43.76364" lon="3.45413">
        <ele>672</ele>
        <time>2021-10-21T10:41:16+02:00</time>
      </trkpt>
      <trkpt lat="43.7637" lon="3.45396">
        <ele>668</ele>
        <time>2021-10-21T10:41:39+02:00</time>
      </trkpt>
      <trkpt lat="43.76375" lon="3.45399">
        <ele>672</ele>
        <time>2021-10-21T10:42:00+02:00</time>
      </trkpt>
      <trkpt lat="43.76385" lon="3.4542">
        <ele>686</ele>
        <time>2021-10-21T10:42:27+02:00</time>
      </trkpt>
      <trkpt lat="43.7638" lon="3.45438">
        <ele>688</ele>
        <time>2021-10-21T10:42:52+02:00</time>
      </trkpt>
      <trkpt lat="43.76377" lon="3.45442">
        <ele>688</ele>
        <time>2021-10-21T10:42:59+02:00</time>
      </trkpt>
      <trkpt lat="43.76376" lon="3.45451">
        <ele>690</ele>
        <time>2021-10-21T10:43:27+02:00</time>
      </trkpt>
      <trkpt lat="43.76381" lon="3.45451">
        <ele>691</ele>
        <time>2021-10-21T10:43:50+02:00</time>
      </trkpt>
      <trkpt lat="43.76385" lon="3.45457">
        <ele>693</ele>
        <time>2021-10-21T10:44:16+02:00</time>
      </trkpt>
      <trkpt lat="43.76381" lon="3.4546">
        <ele>693</ele>
        <time>2021-10-21T10:44:26+02:00</time>
      </trkpt>
      <trkpt lat="43.76376" lon="3.45463">
        <ele>692</ele>
        <time>2021-10-21T10:44:38+02:00</time>
      </trkpt>
      <trkpt lat="43.76373" lon="3.45464">
        <ele>692</ele>
        <time>2021-10-21T10:44:41+02:00</time>
      </trkpt>
      <trkpt lat="43.76355" lon="3.45467">
        <ele>691</ele>
        <time>2021-10-21T10:45:09+02:00</time>
      </trkpt>
      <trkpt lat="43.76352" lon="3.45469">
        <ele>692</ele>
        <time>2021-10-21T10:45:43+02:00</time>
      </trkpt>
      <trkpt lat="43.76337" lon="3.45469">
        <ele>692</ele>
        <time>2021-10-21T10:46:11+02:00</time>
      </trkpt>
      <trkpt lat="43.76326" lon="3.45472">
        <ele>693</ele>
        <time>2021-10-21T10:46:28+02:00</time>
      </trkpt>
      <trkpt lat="43.76321" lon="3.45478">
        <ele>694</ele>
        <time>2021-10-21T10:46:40+02:00</time>
      </trkpt>
      <trkpt lat="43.76319" lon="3.45479">
        <ele>694</ele>
        <time>2021-10-21T10:46:42+02:00</time>
      </trkpt>
      <trkpt lat="43.76306" lon="3.45484">
        <ele>695</ele>
        <time>2021-10-21T10:47:05+02:00</time>
      </trkpt>
      <trkpt lat="43.763" lon="3.45491">
        <ele>695</ele>
        <time>2021-10-21T10:47:18+02:00</time>
      </trkpt>
      <trkpt lat="43.76299" lon="3.45491">
        <ele>695</ele>
        <time>2021-10-21T10:47:19+02:00</time>
      </trkpt>
      <trkpt lat="43.76294" lon="3.45504">
        <ele>696</ele>
        <time>2021-10-21T10:47:46+02:00</time>
      </trkpt>
      <trkpt lat="43.76296" lon="3.45513">
        <ele>697</ele>
        <time>2021-10-21T10:47:57+02:00</time>
      </trkpt>
      <trkpt lat="43.76294" lon="3.45524">
        <ele>697</ele>
        <time>2021-10-21T10:48:09+02:00</time>
      </trkpt>
      <trkpt lat="43.76283" lon="3.45533">
        <ele>698</ele>
        <time>2021-10-21T10:48:25+02:00</time>
      </trkpt>
      <trkpt lat="43.76281" lon="3.45538">
        <ele>698</ele>
        <time>2021-10-21T10:48:30+02:00</time>
      </trkpt>
      <trkpt lat="43.76275" lon="3.45541">
        <ele>698</ele>
        <time>2021-10-21T10:48:58+02:00</time>
      </trkpt>
      <trkpt lat="43.76279" lon="3.45541">
        <ele>698</ele>
        <time>2021-10-21T10:49:43+02:00</time>
      </trkpt>
      <trkpt lat="43.76272" lon="3.45532">
        <ele>698</ele>
        <time>2021-10-21T10:50:13+02:00</time>
      </trkpt>
      <trkpt lat="43.76276" lon="3.45534">
        <ele>698</ele>
        <time>2021-10-21T10:50:42+02:00</time>
      </trkpt>
      <trkpt lat="43.76274" lon="3.45537">
        <ele>698</ele>
        <time>2021-10-21T10:51:25+02:00</time>
      </trkpt>
      <trkpt lat="43.76271" lon="3.45541">
        <ele>698</ele>
        <time>2021-10-21T10:51:48+02:00</time>
      </trkpt>
      <trkpt lat="43.7627" lon="3.45539">
        <ele>698</ele>
        <time>2021-10-21T10:51:59+02:00</time>
      </trkpt>
      <trkpt lat="43.76263" lon="3.45542">
        <ele>698</ele>
        <time>2021-10-21T10:52:40+02:00</time>
      </trkpt>
      <trkpt lat="43.76269" lon="3.45539">
        <ele>698</ele>
        <time>2021-10-21T10:53:36+02:00</time>
      </trkpt>
      <trkpt lat="43.76272" lon="3.45534">
        <ele>698</ele>
        <time>2021-10-21T10:53:59+02:00</time>
      </trkpt>
      <trkpt lat="43.76274" lon="3.45536">
        <ele>698</ele>
        <time>2021-10-21T10:54:39+02:00</time>
      </trkpt>
      <trkpt lat="43.76276" lon="3.45539">
        <ele>698</ele>
        <time>2021-10-21T10:55:24+02:00</time>
      </trkpt>
      <trkpt lat="43.76279" lon="3.45536">
        <ele>698</ele>
        <time>2021-10-21T10:56:19+02:00</time>
      </trkpt>
      <trkpt lat="43.76272" lon="3.45539">
        <ele>698</ele>
        <time>2021-10-21T10:56:44+02:00</time>
      </trkpt>
      <trkpt lat="43.76273" lon="3.45541">
        <ele>698</ele>
        <time>2021-10-21T10:57:34+02:00</time>
      </trkpt>
      <trkpt lat="43.76273" lon="3.4554">
        <ele>698</ele>
        <time>2021-10-21T10:57:57+02:00</time>
      </trkpt>
      <trkpt lat="43.76271" lon="3.4554">
        <ele>698</ele>
        <time>2021-10-21T10:58:52+02:00</time>
      </trkpt>
      <trkpt lat="43.76267" lon="3.4554">
        <ele>698</ele>
        <time>2021-10-21T10:59:30+02:00</time>
      </trkpt>
      <trkpt lat="43.76246" lon="3.45543">
        <ele>698</ele>
        <time>2021-10-21T10:59:52+02:00</time>
      </trkpt>
      <trkpt lat="43.76218" lon="3.45537">
        <ele>697</ele>
        <time>2021-10-21T11:00:20+02:00</time>
      </trkpt>
      <trkpt lat="43.76191" lon="3.45537">
        <ele>697</ele>
        <time>2021-10-21T11:00:46+02:00</time>
      </trkpt>
      <trkpt lat="43.7618" lon="3.45537">
        <ele>696</ele>
        <time>2021-10-21T11:00:58+02:00</time>
      </trkpt>
      <trkpt lat="43.76154" lon="3.45544">
        <ele>695</ele>
        <time>2021-10-21T11:01:20+02:00</time>
      </trkpt>
      <trkpt lat="43.76129" lon="3.45567">
        <ele>694</ele>
        <time>2021-10-21T11:01:48+02:00</time>
      </trkpt>
      <trkpt lat="43.76106" lon="3.45576">
        <ele>695</ele>
        <time>2021-10-21T11:02:12+02:00</time>
      </trkpt>
      <trkpt lat="43.76081" lon="3.45593">
        <ele>695</ele>
        <time>2021-10-21T11:02:37+02:00</time>
      </trkpt>
      <trkpt lat="43.76054" lon="3.45611">
        <ele>695</ele>
        <time>2021-10-21T11:03:04+02:00</time>
      </trkpt>
      <trkpt lat="43.76032" lon="3.45626">
        <ele>695</ele>
        <time>2021-10-21T11:03:29+02:00</time>
      </trkpt>
      <trkpt lat="43.76009" lon="3.45643">
        <ele>695</ele>
        <time>2021-10-21T11:03:53+02:00</time>
      </trkpt>
      <trkpt lat="43.7599" lon="3.45672">
        <ele>694</ele>
        <time>2021-10-21T11:04:20+02:00</time>
      </trkpt>
      <trkpt lat="43.75988" lon="3.45674">
        <ele>694</ele>
        <time>2021-10-21T11:04:22+02:00</time>
      </trkpt>
      <trkpt lat="43.75982" lon="3.45689">
        <ele>694</ele>
        <time>2021-10-21T11:04:28+02:00</time>
      </trkpt>
      <trkpt lat="43.75972" lon="3.45717">
        <ele>693</ele>
        <time>2021-10-21T11:04:46+02:00</time>
      </trkpt>
      <trkpt lat="43.75966" lon="3.45743">
        <ele>693</ele>
        <time>2021-10-21T11:05:01+02:00</time>
      </trkpt>
      <trkpt lat="43.75954" lon="3.45768">
        <ele>692</ele>
        <time>2021-10-21T11:05:20+02:00</time>
      </trkpt>
      <trkpt lat="43.75951" lon="3.45776">
        <ele>692</ele>
        <time>2021-10-21T11:05:27+02:00</time>
      </trkpt>
      <trkpt lat="43.7595" lon="3.45796">
        <ele>691</ele>
        <time>2021-10-21T11:05:39+02:00</time>
      </trkpt>
      <trkpt lat="43.75952" lon="3.45819">
        <ele>691</ele>
        <time>2021-10-21T11:05:56+02:00</time>
      </trkpt>
      <trkpt lat="43.75935" lon="3.45854">
        <ele>690</ele>
        <time>2021-10-21T11:06:23+02:00</time>
      </trkpt>
      <trkpt lat="43.75929" lon="3.4586">
        <ele>690</ele>
        <time>2021-10-21T11:06:30+02:00</time>
      </trkpt>
      <trkpt lat="43.75915" lon="3.45873">
        <ele>690</ele>
        <time>2021-10-21T11:06:46+02:00</time>
      </trkpt>
      <trkpt lat="43.75905" lon="3.45879">
        <ele>690</ele>
        <time>2021-10-21T11:07:06+02:00</time>
      </trkpt>
      <trkpt lat="43.75896" lon="3.45867">
        <ele>691</ele>
        <time>2021-10-21T11:07:29+02:00</time>
      </trkpt>
      <trkpt lat="43.75875" lon="3.45857">
        <ele>692</ele>
        <time>2021-10-21T11:07:55+02:00</time>
      </trkpt>
      <trkpt lat="43.75848" lon="3.45848">
        <ele>693</ele>
        <time>2021-10-21T11:08:21+02:00</time>
      </trkpt>
      <trkpt lat="43.75826" lon="3.45834">
        <ele>694</ele>
        <time>2021-10-21T11:08:46+02:00</time>
      </trkpt>
      <trkpt lat="43.7579" lon="3.45826">
        <ele>696</ele>
        <time>2021-10-21T11:09:20+02:00</time>
      </trkpt>
      <trkpt lat="43.75761" lon="3.45815">
        <ele>697</ele>
        <time>2021-10-21T11:09:49+02:00</time>
      </trkpt>
      <trkpt lat="43.75731" lon="3.45803">
        <ele>699</ele>
        <time>2021-10-21T11:10:17+02:00</time>
      </trkpt>
      <trkpt lat="43.75706" lon="3.458">
        <ele>700</ele>
        <time>2021-10-21T11:10:43+02:00</time>
      </trkpt>
      <trkpt lat="43.75685" lon="3.45795">
        <ele>701</ele>
        <time>2021-10-21T11:11:07+02:00</time>
      </trkpt>
      <trkpt lat="43.75665" lon="3.4578">
        <ele>702</ele>
        <time>2021-10-21T11:11:32+02:00</time>
      </trkpt>
      <trkpt lat="43.75648" lon="3.45772">
        <ele>705</ele>
        <time>2021-10-21T11:11:56+02:00</time>
      </trkpt>
      <trkpt lat="43.75643" lon="3.45763">
        <ele>706</ele>
        <time>2021-10-21T11:12:11+02:00</time>
      </trkpt>
      <trkpt lat="43.75624" lon="3.45752">
        <ele>709</ele>
        <time>2021-10-21T11:12:39+02:00</time>
      </trkpt>
      <trkpt lat="43.75601" lon="3.45758">
        <ele>710</ele>
        <time>2021-10-21T11:13:05+02:00</time>
      </trkpt>
      <trkpt lat="43.75576" lon="3.45749">
        <ele>713</ele>
        <time>2021-10-21T11:13:32+02:00</time>
      </trkpt>
      <trkpt lat="43.75553" lon="3.45747">
        <ele>715</ele>
        <time>2021-10-21T11:13:57+02:00</time>
      </trkpt>
      <trkpt lat="43.75524" lon="3.45745">
        <ele>718</ele>
        <time>2021-10-21T11:14:25+02:00</time>
      </trkpt>
      <trkpt lat="43.75498" lon="3.45737">
        <ele>720</ele>
        <time>2021-10-21T11:14:52+02:00</time>
      </trkpt>
      <trkpt lat="43.75488" lon="3.45712">
        <ele>721</ele>
        <time>2021-10-21T11:15:16+02:00</time>
      </trkpt>
      <trkpt lat="43.75481" lon="3.45693">
        <ele>721</ele>
        <time>2021-10-21T11:15:35+02:00</time>
      </trkpt>
      <trkpt lat="43.75465" lon="3.45669">
        <ele>723</ele>
        <time>2021-10-21T11:15:58+02:00</time>
      </trkpt>
      <trkpt lat="43.75447" lon="3.45651">
        <ele>724</ele>
        <time>2021-10-21T11:16:19+02:00</time>
      </trkpt>
      <trkpt lat="43.75422" lon="3.45638">
        <ele>726</ele>
        <time>2021-10-21T11:16:44+02:00</time>
      </trkpt>
      <trkpt lat="43.754" lon="3.4564">
        <ele>727</ele>
        <time>2021-10-21T11:17:00+02:00</time>
      </trkpt>
      <trkpt lat="43.75377" lon="3.45635">
        <ele>727</ele>
        <time>2021-10-21T11:17:20+02:00</time>
      </trkpt>
      <trkpt lat="43.75362" lon="3.45632">
        <ele>728</ele>
        <time>2021-10-21T11:17:35+02:00</time>
      </trkpt>
      <trkpt lat="43.75338" lon="3.45638">
        <ele>729</ele>
        <time>2021-10-21T11:17:58+02:00</time>
      </trkpt>
      <trkpt lat="43.75323" lon="3.45628">
        <ele>729</ele>
        <time>2021-10-21T11:18:19+02:00</time>
      </trkpt>
      <trkpt lat="43.75295" lon="3.45615">
        <ele>730</ele>
        <time>2021-10-21T11:18:49+02:00</time>
      </trkpt>
      <trkpt lat="43.75264" lon="3.45597">
        <ele>732</ele>
        <time>2021-10-21T11:19:16+02:00</time>
      </trkpt>
      <trkpt lat="43.75238" lon="3.45589">
        <ele>735</ele>
        <time>2021-10-21T11:19:41+02:00</time>
      </trkpt>
      <trkpt lat="43.75226" lon="3.45579">
        <ele>735</ele>
        <time>2021-10-21T11:20:00+02:00</time>
      </trkpt>
      <trkpt lat="43.75191" lon="3.45571">
        <ele>737</ele>
        <time>2021-10-21T11:20:30+02:00</time>
      </trkpt>
      <trkpt lat="43.75169" lon="3.45553">
        <ele>737</ele>
        <time>2021-10-21T11:20:54+02:00</time>
      </trkpt>
      <trkpt lat="43.75155" lon="3.45561">
        <ele>738</ele>
        <time>2021-10-21T11:21:16+02:00</time>
      </trkpt>
      <trkpt lat="43.75145" lon="3.45539">
        <ele>738</ele>
        <time>2021-10-21T11:21:41+02:00</time>
      </trkpt>
      <trkpt lat="43.75133" lon="3.45518">
        <ele>738</ele>
        <time>2021-10-21T11:22:03+02:00</time>
      </trkpt>
      <trkpt lat="43.7511" lon="3.45514">
        <ele>739</ele>
        <time>2021-10-21T11:22:24+02:00</time>
      </trkpt>
      <trkpt lat="43.75092" lon="3.45503">
        <ele>740</ele>
        <time>2021-10-21T11:22:48+02:00</time>
      </trkpt>
      <trkpt lat="43.75069" lon="3.45488">
        <ele>740</ele>
        <time>2021-10-21T11:23:13+02:00</time>
      </trkpt>
      <trkpt lat="43.7504" lon="3.45474">
        <ele>741</ele>
        <time>2021-10-21T11:23:38+02:00</time>
      </trkpt>
      <trkpt lat="43.75022" lon="3.45465">
        <ele>740</ele>
        <time>2021-10-21T11:24:00+02:00</time>
      </trkpt>
      <trkpt lat="43.75021" lon="3.45466">
        <ele>740</ele>
        <time>2021-10-21T11:24:22+02:00</time>
      </trkpt>
      <trkpt lat="43.75021" lon="3.45472">
        <ele>741</ele>
        <time>2021-10-21T11:24:29+02:00</time>
      </trkpt>
      <trkpt lat="43.7502" lon="3.45474">
        <ele>741</ele>
        <time>2021-10-21T11:24:31+02:00</time>
      </trkpt>
      <trkpt lat="43.75015" lon="3.45479">
        <ele>741</ele>
        <time>2021-10-21T11:24:46+02:00</time>
      </trkpt>
      <trkpt lat="43.7502" lon="3.45499">
        <ele>743</ele>
        <time>2021-10-21T11:25:08+02:00</time>
      </trkpt>
      <trkpt lat="43.75022" lon="3.4552">
        <ele>744</ele>
        <time>2021-10-21T11:25:26+02:00</time>
      </trkpt>
      <trkpt lat="43.75026" lon="3.45548">
        <ele>747</ele>
        <time>2021-10-21T11:25:50+02:00</time>
      </trkpt>
      <trkpt lat="43.75023" lon="3.45556">
        <ele>748</ele>
        <time>2021-10-21T11:26:10+02:00</time>
      </trkpt>
      <trkpt lat="43.75018" lon="3.4557">
        <ele>749</ele>
        <time>2021-10-21T11:29:01+02:00</time>
      </trkpt>
      <trkpt lat="43.75011" lon="3.4558">
        <ele>750</ele>
        <time>2021-10-21T11:29:25+02:00</time>
      </trkpt>
      <trkpt lat="43.75002" lon="3.45582">
        <ele>750</ele>
        <time>2021-10-21T11:29:48+02:00</time>
      </trkpt>
      <trkpt lat="43.75" lon="3.45598">
        <ele>750</ele>
        <time>2021-10-21T11:30:10+02:00</time>
      </trkpt>
      <trkpt lat="43.74988" lon="3.45615">
        <ele>749</ele>
        <time>2021-10-21T11:30:29+02:00</time>
      </trkpt>
      <trkpt lat="43.74979" lon="3.45635">
        <ele>749</ele>
        <time>2021-10-21T11:30:44+02:00</time>
      </trkpt>
      <trkpt lat="43.74966" lon="3.45639">
        <ele>749</ele>
        <time>2021-10-21T11:31:03+02:00</time>
      </trkpt>
      <trkpt lat="43.7495" lon="3.4565">
        <ele>750</ele>
        <time>2021-10-21T11:31:25+02:00</time>
      </trkpt>
      <trkpt lat="43.74933" lon="3.45671">
        <ele>750</ele>
        <time>2021-10-21T11:31:48+02:00</time>
      </trkpt>
      <trkpt lat="43.74922" lon="3.45696">
        <ele>750</ele>
        <time>2021-10-21T11:32:12+02:00</time>
      </trkpt>
      <trkpt lat="43.74914" lon="3.45704">
        <ele>750</ele>
        <time>2021-10-21T11:32:33+02:00</time>
      </trkpt>
      <trkpt lat="43.74899" lon="3.45714">
        <ele>750</ele>
        <time>2021-10-21T11:32:52+02:00</time>
      </trkpt>
      <trkpt lat="43.74894" lon="3.45721">
        <ele>750</ele>
        <time>2021-10-21T11:32:57+02:00</time>
      </trkpt>
      <trkpt lat="43.74874" lon="3.45734">
        <ele>750</ele>
        <time>2021-10-21T11:33:20+02:00</time>
      </trkpt>
      <trkpt lat="43.7487" lon="3.4573">
        <ele>750</ele>
        <time>2021-10-21T11:33:38+02:00</time>
      </trkpt>
      <trkpt lat="43.74867" lon="3.45728">
        <ele>750</ele>
        <time>2021-10-21T11:34:09+02:00</time>
      </trkpt>
      <trkpt lat="43.74866" lon="3.45727">
        <ele>750</ele>
        <time>2021-10-21T11:34:49+02:00</time>
      </trkpt>
      <trkpt lat="43.74868" lon="3.45725">
        <ele>750</ele>
        <time>2021-10-21T11:35:25+02:00</time>
      </trkpt>
      <trkpt lat="43.74865" lon="3.45727">
        <ele>750</ele>
        <time>2021-10-21T11:35:50+02:00</time>
      </trkpt>
      <trkpt lat="43.74872" lon="3.45733">
        <ele>750</ele>
        <time>2021-10-21T11:36:36+02:00</time>
      </trkpt>
      <trkpt lat="43.74868" lon="3.45733">
        <ele>750</ele>
        <time>2021-10-21T11:37:08+02:00</time>
      </trkpt>
      <trkpt lat="43.74868" lon="3.45733">
        <ele>750</ele>
        <time>2021-10-21T11:38:03+02:00</time>
      </trkpt>
      <trkpt lat="43.74868" lon="3.45732">
        <ele>750</ele>
        <time>2021-10-21T11:38:58+02:00</time>
      </trkpt>
      <trkpt lat="43.74866" lon="3.45736">
        <ele>750</ele>
        <time>2021-10-21T11:39:49+02:00</time>
      </trkpt>
      <trkpt lat="43.74866" lon="3.45741">
        <ele>749</ele>
        <time>2021-10-21T11:40:43+02:00</time>
      </trkpt>
      <trkpt lat="43.74856" lon="3.45756">
        <ele>748</ele>
        <time>2021-10-21T11:41:05+02:00</time>
      </trkpt>
      <trkpt lat="43.74852" lon="3.4576">
        <ele>747</ele>
        <time>2021-10-21T11:41:13+02:00</time>
      </trkpt>
      <trkpt lat="43.74842" lon="3.45778">
        <ele>745</ele>
        <time>2021-10-21T11:41:40+02:00</time>
      </trkpt>
      <trkpt lat="43.74827" lon="3.45794">
        <ele>743</ele>
        <time>2021-10-21T11:42:02+02:00</time>
      </trkpt>
      <trkpt lat="43.7482" lon="3.45806">
        <ele>742</ele>
        <time>2021-10-21T11:42:28+02:00</time>
      </trkpt>
      <trkpt lat="43.74812" lon="3.45818">
        <ele>741</ele>
        <time>2021-10-21T11:42:46+02:00</time>
      </trkpt>
      <trkpt lat="43.74807" lon="3.45833">
        <ele>740</ele>
        <time>2021-10-21T11:43:09+02:00</time>
      </trkpt>
      <trkpt lat="43.74796" lon="3.45851">
        <ele>740</ele>
        <time>2021-10-21T11:43:26+02:00</time>
      </trkpt>
      <trkpt lat="43.74795" lon="3.4586">
        <ele>739</ele>
        <time>2021-10-21T11:43:35+02:00</time>
      </trkpt>
      <trkpt lat="43.74779" lon="3.45872">
        <ele>740</ele>
        <time>2021-10-21T11:43:51+02:00</time>
      </trkpt>
      <trkpt lat="43.74771" lon="3.45883">
        <ele>740</ele>
        <time>2021-10-21T11:44:03+02:00</time>
      </trkpt>
      <trkpt lat="43.74754" lon="3.45906">
        <ele>740</ele>
        <time>2021-10-21T11:44:25+02:00</time>
      </trkpt>
      <trkpt lat="43.74733" lon="3.45923">
        <ele>739</ele>
        <time>2021-10-21T11:44:47+02:00</time>
      </trkpt>
      <trkpt lat="43.74718" lon="3.45895">
        <ele>739</ele>
        <time>2021-10-21T11:45:12+02:00</time>
      </trkpt>
      <trkpt lat="43.74705" lon="3.4588">
        <ele>738</ele>
        <time>2021-10-21T11:45:33+02:00</time>
      </trkpt>
      <trkpt lat="43.74703" lon="3.45879">
        <ele>738</ele>
        <time>2021-10-21T11:45:35+02:00</time>
      </trkpt>
      <trkpt lat="43.74693" lon="3.45874">
        <ele>737</ele>
        <time>2021-10-21T11:45:52+02:00</time>
      </trkpt>
      <trkpt lat="43.7468" lon="3.45889">
        <ele>734</ele>
        <time>2021-10-21T11:46:14+02:00</time>
      </trkpt>
      <trkpt lat="43.74663" lon="3.45898">
        <ele>731</ele>
        <time>2021-10-21T11:46:41+02:00</time>
      </trkpt>
      <trkpt lat="43.74642" lon="3.45887">
        <ele>728</ele>
        <time>2021-10-21T11:47:07+02:00</time>
      </trkpt>
      <trkpt lat="43.74617" lon="3.45886">
        <ele>723</ele>
        <time>2021-10-21T11:47:35+02:00</time>
      </trkpt>
      <trkpt lat="43.74607" lon="3.45882">
        <ele>722</ele>
        <time>2021-10-21T11:47:49+02:00</time>
      </trkpt>
      <trkpt lat="43.74586" lon="3.45882">
        <ele>720</ele>
        <time>2021-10-21T11:48:08+02:00</time>
      </trkpt>
      <trkpt lat="43.74574" lon="3.45875">
        <ele>718</ele>
        <time>2021-10-21T11:48:26+02:00</time>
      </trkpt>
      <trkpt lat="43.74559" lon="3.45865">
        <ele>716</ele>
        <time>2021-10-21T11:48:48+02:00</time>
      </trkpt>
      <trkpt lat="43.74558" lon="3.45861">
        <ele>715</ele>
        <time>2021-10-21T11:48:54+02:00</time>
      </trkpt>
      <trkpt lat="43.74556" lon="3.45843">
        <ele>711</ele>
        <time>2021-10-21T11:49:36+02:00</time>
      </trkpt>
      <trkpt lat="43.74552" lon="3.45851">
        <ele>712</ele>
        <time>2021-10-21T11:50:19+02:00</time>
      </trkpt>
      <trkpt lat="43.74543" lon="3.45857">
        <ele>713</ele>
        <time>2021-10-21T11:50:41+02:00</time>
      </trkpt>
      <trkpt lat="43.74531" lon="3.4587">
        <ele>713</ele>
        <time>2021-10-21T11:51:00+02:00</time>
      </trkpt>
      <trkpt lat="43.74515" lon="3.45897">
        <ele>711</ele>
        <time>2021-10-21T11:51:25+02:00</time>
      </trkpt>
      <trkpt lat="43.74522" lon="3.45918">
        <ele>710</ele>
        <time>2021-10-21T11:51:38+02:00</time>
      </trkpt>
      <trkpt lat="43.74523" lon="3.45954">
        <ele>707</ele>
        <time>2021-10-21T11:52:06+02:00</time>
      </trkpt>
      <trkpt lat="43.7451" lon="3.45976">
        <ele>703</ele>
        <time>2021-10-21T11:52:22+02:00</time>
      </trkpt>
      <trkpt lat="43.74501" lon="3.45978">
        <ele>702</ele>
        <time>2021-10-21T11:52:35+02:00</time>
      </trkpt>
      <trkpt lat="43.74502" lon="3.4597">
        <ele>703</ele>
        <time>2021-10-21T11:53:30+02:00</time>
      </trkpt>
      <trkpt lat="43.74487" lon="3.45959">
        <ele>702</ele>
        <time>2021-10-21T11:53:47+02:00</time>
      </trkpt>
      <trkpt lat="43.74477" lon="3.45951">
        <ele>701</ele>
        <time>2021-10-21T11:54:06+02:00</time>
      </trkpt>
      <trkpt lat="43.74469" lon="3.45937">
        <ele>702</ele>
        <time>2021-10-21T11:54:31+02:00</time>
      </trkpt>
      <trkpt lat="43.74451" lon="3.45924">
        <ele>706</ele>
        <time>2021-10-21T11:54:56+02:00</time>
      </trkpt>
      <trkpt lat="43.74433" lon="3.45914">
        <ele>709</ele>
        <time>2021-10-21T11:55:17+02:00</time>
      </trkpt>
      <trkpt lat="43.7442" lon="3.45901">
        <ele>710</ele>
        <time>2021-10-21T11:55:36+02:00</time>
      </trkpt>
      <trkpt lat="43.744" lon="3.45892">
        <ele>710</ele>
        <time>2021-10-21T11:56:03+02:00</time>
      </trkpt>
      <trkpt lat="43.74385" lon="3.45886">
        <ele>710</ele>
        <time>2021-10-21T11:56:21+02:00</time>
      </trkpt>
      <trkpt lat="43.74359" lon="3.45881">
        <ele>711</ele>
        <time>2021-10-21T11:56:48+02:00</time>
      </trkpt>
      <trkpt lat="43.7435" lon="3.45876">
        <ele>713</ele>
        <time>2021-10-21T11:57:02+02:00</time>
      </trkpt>
      <trkpt lat="43.7435" lon="3.45875">
        <ele>713</ele>
        <time>2021-10-21T11:57:03+02:00</time>
      </trkpt>
      <trkpt lat="43.74342" lon="3.45876">
        <ele>714</ele>
        <time>2021-10-21T11:57:10+02:00</time>
      </trkpt>
      <trkpt lat="43.7433" lon="3.4587">
        <ele>715</ele>
        <time>2021-10-21T11:57:23+02:00</time>
      </trkpt>
      <trkpt lat="43.74326" lon="3.45861">
        <ele>715</ele>
        <time>2021-10-21T11:57:32+02:00</time>
      </trkpt>
      <trkpt lat="43.74315" lon="3.45851">
        <ele>716</ele>
        <time>2021-10-21T11:57:51+02:00</time>
      </trkpt>
      <trkpt lat="43.74295" lon="3.45845">
        <ele>720</ele>
        <time>2021-10-21T11:58:19+02:00</time>
      </trkpt>
      <trkpt lat="43.7429" lon="3.45851">
        <ele>721</ele>
        <time>2021-10-21T11:58:42+02:00</time>
      </trkpt>
      <trkpt lat="43.7428" lon="3.45861">
        <ele>724</ele>
        <time>2021-10-21T11:59:03+02:00</time>
      </trkpt>
      <trkpt lat="43.74279" lon="3.45864">
        <ele>724</ele>
        <time>2021-10-21T11:59:06+02:00</time>
      </trkpt>
      <trkpt lat="43.74277" lon="3.45867">
        <ele>725</ele>
        <time>2021-10-21T11:59:12+02:00</time>
      </trkpt>
      <trkpt lat="43.74267" lon="3.45885">
        <ele>728</ele>
        <time>2021-10-21T11:59:36+02:00</time>
      </trkpt>
      <trkpt lat="43.74247" lon="3.45883">
        <ele>730</ele>
        <time>2021-10-21T12:00:00+02:00</time>
      </trkpt>
      <trkpt lat="43.74219" lon="3.45874">
        <ele>734</ele>
        <time>2021-10-21T12:00:29+02:00</time>
      </trkpt>
      <trkpt lat="43.742" lon="3.45878">
        <ele>735</ele>
        <time>2021-10-21T12:00:51+02:00</time>
      </trkpt>
      <trkpt lat="43.742" lon="3.45875">
        <ele>735</ele>
        <time>2021-10-21T12:01:06+02:00</time>
      </trkpt>
      <trkpt lat="43.74196" lon="3.4587">
        <ele>736</ele>
        <time>2021-10-21T12:01:19+02:00</time>
      </trkpt>
      <trkpt lat="43.74184" lon="3.45869">
        <ele>738</ele>
        <time>2021-10-21T12:01:38+02:00</time>
      </trkpt>
      <trkpt lat="43.74178" lon="3.45859">
        <ele>740</ele>
        <time>2021-10-21T12:01:52+02:00</time>
      </trkpt>
      <trkpt lat="43.74164" lon="3.45845">
        <ele>743</ele>
        <time>2021-10-21T12:02:14+02:00</time>
      </trkpt>
      <trkpt lat="43.74152" lon="3.45838">
        <ele>746</ele>
        <time>2021-10-21T12:02:30+02:00</time>
      </trkpt>
      <trkpt lat="43.74143" lon="3.4583">
        <ele>747</ele>
        <time>2021-10-21T12:02:44+02:00</time>
      </trkpt>
      <trkpt lat="43.74126" lon="3.4582">
        <ele>748</ele>
        <time>2021-10-21T12:03:11+02:00</time>
      </trkpt>
      <trkpt lat="43.74104" lon="3.45813">
        <ele>749</ele>
        <time>2021-10-21T12:03:35+02:00</time>
      </trkpt>
      <trkpt lat="43.74098" lon="3.45816">
        <ele>750</ele>
        <time>2021-10-21T12:03:43+02:00</time>
      </trkpt>
      <trkpt lat="43.74075" lon="3.45825">
        <ele>753</ele>
        <time>2021-10-21T12:04:09+02:00</time>
      </trkpt>
      <trkpt lat="43.74071" lon="3.45831">
        <ele>753</ele>
        <time>2021-10-21T12:04:17+02:00</time>
      </trkpt>
      <trkpt lat="43.74042" lon="3.45841">
        <ele>752</ele>
        <time>2021-10-21T12:04:45+02:00</time>
      </trkpt>
      <trkpt lat="43.74015" lon="3.45858">
        <ele>749</ele>
        <time>2021-10-21T12:05:10+02:00</time>
      </trkpt>
      <trkpt lat="43.74004" lon="3.45883">
        <ele>750</ele>
        <time>2021-10-21T12:05:33+02:00</time>
      </trkpt>
      <trkpt lat="43.73997" lon="3.45916">
        <ele>748</ele>
        <time>2021-10-21T12:05:57+02:00</time>
      </trkpt>
      <trkpt lat="43.73978" lon="3.45946">
        <ele>747</ele>
        <time>2021-10-21T12:06:20+02:00</time>
      </trkpt>
      <trkpt lat="43.73962" lon="3.45963">
        <ele>745</ele>
        <time>2021-10-21T12:06:42+02:00</time>
      </trkpt>
      <trkpt lat="43.73955" lon="3.45987">
        <ele>744</ele>
        <time>2021-10-21T12:07:00+02:00</time>
      </trkpt>
      <trkpt lat="43.73953" lon="3.46019">
        <ele>742</ele>
        <time>2021-10-21T12:07:26+02:00</time>
      </trkpt>
      <trkpt lat="43.73948" lon="3.46041">
        <ele>739</ele>
        <time>2021-10-21T12:07:44+02:00</time>
      </trkpt>
      <trkpt lat="43.73959" lon="3.46067">
        <ele>736</ele>
        <time>2021-10-21T12:08:09+02:00</time>
      </trkpt>
      <trkpt lat="43.73969" lon="3.46077">
        <ele>736</ele>
        <time>2021-10-21T12:08:27+02:00</time>
      </trkpt>
      <trkpt lat="43.73982" lon="3.46088">
        <ele>733</ele>
        <time>2021-10-21T12:08:44+02:00</time>
      </trkpt>
      <trkpt lat="43.74003" lon="3.46093">
        <ele>731</ele>
        <time>2021-10-21T12:09:18+02:00</time>
      </trkpt>
      <trkpt lat="43.74013" lon="3.46106">
        <ele>725</ele>
        <time>2021-10-21T12:09:36+02:00</time>
      </trkpt>
      <trkpt lat="43.74022" lon="3.46109">
        <ele>724</ele>
        <time>2021-10-21T12:09:46+02:00</time>
      </trkpt>
      <trkpt lat="43.74026" lon="3.46107">
        <ele>724</ele>
        <time>2021-10-21T12:09:54+02:00</time>
      </trkpt>
      <trkpt lat="43.7404" lon="3.461">
        <ele>728</ele>
        <time>2021-10-21T12:10:13+02:00</time>
      </trkpt>
      <trkpt lat="43.74063" lon="3.46098">
        <ele>731</ele>
        <time>2021-10-21T12:10:35+02:00</time>
      </trkpt>
      <trkpt lat="43.7408" lon="3.46104">
        <ele>732</ele>
        <time>2021-10-21T12:10:59+02:00</time>
      </trkpt>
      <trkpt lat="43.74101" lon="3.46116">
        <ele>734</ele>
        <time>2021-10-21T12:11:22+02:00</time>
      </trkpt>
      <trkpt lat="43.74111" lon="3.46133">
        <ele>735</ele>
        <time>2021-10-21T12:11:45+02:00</time>
      </trkpt>
      <trkpt lat="43.74119" lon="3.46146">
        <ele>733</ele>
        <time>2021-10-21T12:12:05+02:00</time>
      </trkpt>
      <trkpt lat="43.74125" lon="3.46166">
        <ele>731</ele>
        <time>2021-10-21T12:12:29+02:00</time>
      </trkpt>
      <trkpt lat="43.74125" lon="3.46183">
        <ele>728</ele>
        <time>2021-10-21T12:12:55+02:00</time>
      </trkpt>
      <trkpt lat="43.74124" lon="3.46195">
        <ele>727</ele>
        <time>2021-10-21T12:13:15+02:00</time>
      </trkpt>
      <trkpt lat="43.74127" lon="3.46199">
        <ele>726</ele>
        <time>2021-10-21T12:13:45+02:00</time>
      </trkpt>
      <trkpt lat="43.74127" lon="3.46197">
        <ele>726</ele>
        <time>2021-10-21T12:14:39+02:00</time>
      </trkpt>
      <trkpt lat="43.7412" lon="3.46215">
        <ele>725</ele>
        <time>2021-10-21T12:15:05+02:00</time>
      </trkpt>
      <trkpt lat="43.74109" lon="3.46224">
        <ele>725</ele>
        <time>2021-10-21T12:15:26+02:00</time>
      </trkpt>
      <trkpt lat="43.74099" lon="3.46246">
        <ele>722</ele>
        <time>2021-10-21T12:15:49+02:00</time>
      </trkpt>
      <trkpt lat="43.74103" lon="3.46269">
        <ele>719</ele>
        <time>2021-10-21T12:16:11+02:00</time>
      </trkpt>
      <trkpt lat="43.74117" lon="3.46284">
        <ele>715</ele>
        <time>2021-10-21T12:16:33+02:00</time>
      </trkpt>
      <trkpt lat="43.74131" lon="3.46295">
        <ele>711</ele>
        <time>2021-10-21T12:16:53+02:00</time>
      </trkpt>
      <trkpt lat="43.74137" lon="3.46293">
        <ele>711</ele>
        <time>2021-10-21T12:17:02+02:00</time>
      </trkpt>
      <trkpt lat="43.74149" lon="3.46294">
        <ele>709</ele>
        <time>2021-10-21T12:17:21+02:00</time>
      </trkpt>
      <trkpt lat="43.74155" lon="3.463">
        <ele>707</ele>
        <time>2021-10-21T12:17:49+02:00</time>
      </trkpt>
      <trkpt lat="43.74157" lon="3.463">
        <ele>707</ele>
        <time>2021-10-21T12:18:01+02:00</time>
      </trkpt>
      <trkpt lat="43.74161" lon="3.463">
        <ele>706</ele>
        <time>2021-10-21T12:18:05+02:00</time>
      </trkpt>
      <trkpt lat="43.74172" lon="3.46299">
        <ele>705</ele>
        <time>2021-10-21T12:18:19+02:00</time>
      </trkpt>
      <trkpt lat="43.74187" lon="3.46299">
        <ele>703</ele>
        <time>2021-10-21T12:18:43+02:00</time>
      </trkpt>
      <trkpt lat="43.74197" lon="3.46312">
        <ele>702</ele>
        <time>2021-10-21T12:19:09+02:00</time>
      </trkpt>
      <trkpt lat="43.74209" lon="3.46313">
        <ele>701</ele>
        <time>2021-10-21T12:19:31+02:00</time>
      </trkpt>
      <trkpt lat="43.74221" lon="3.46318">
        <ele>700</ele>
        <time>2021-10-21T12:19:52+02:00</time>
      </trkpt>
      <trkpt lat="43.74232" lon="3.46338">
        <ele>699</ele>
        <time>2021-10-21T12:20:12+02:00</time>
      </trkpt>
      <trkpt lat="43.74239" lon="3.46364">
        <ele>696</ele>
        <time>2021-10-21T12:20:35+02:00</time>
      </trkpt>
      <trkpt lat="43.74246" lon="3.46391">
        <ele>692</ele>
        <time>2021-10-21T12:20:59+02:00</time>
      </trkpt>
      <trkpt lat="43.74241" lon="3.46418">
        <ele>691</ele>
        <time>2021-10-21T12:21:22+02:00</time>
      </trkpt>
      <trkpt lat="43.74234" lon="3.46419">
        <ele>692</ele>
        <time>2021-10-21T12:21:49+02:00</time>
      </trkpt>
      <trkpt lat="43.74234" lon="3.46414">
        <ele>693</ele>
        <time>2021-10-21T12:22:23+02:00</time>
      </trkpt>
      <trkpt lat="43.74244" lon="3.46407">
        <ele>691</ele>
        <time>2021-10-21T12:22:42+02:00</time>
      </trkpt>
      <trkpt lat="43.7424" lon="3.46411">
        <ele>691</ele>
        <time>2021-10-21T12:23:18+02:00</time>
      </trkpt>
      <trkpt lat="43.74237" lon="3.4641">
        <ele>692</ele>
        <time>2021-10-21T12:23:52+02:00</time>
      </trkpt>
      <trkpt lat="43.74239" lon="3.46414">
        <ele>692</ele>
        <time>2021-10-21T12:24:21+02:00</time>
      </trkpt>
      <trkpt lat="43.74237" lon="3.46413">
        <ele>692</ele>
        <time>2021-10-21T12:24:53+02:00</time>
      </trkpt>
      <trkpt lat="43.74231" lon="3.46429">
        <ele>692</ele>
        <time>2021-10-21T12:25:14+02:00</time>
      </trkpt>
      <trkpt lat="43.74221" lon="3.46433">
        <ele>694</ele>
        <time>2021-10-21T12:25:43+02:00</time>
      </trkpt>
      <trkpt lat="43.74205" lon="3.46434">
        <ele>693</ele>
        <time>2021-10-21T12:26:05+02:00</time>
      </trkpt>
      <trkpt lat="43.74201" lon="3.46434">
        <ele>693</ele>
        <time>2021-10-21T12:26:11+02:00</time>
      </trkpt>
      <trkpt lat="43.74195" lon="3.46432">
        <ele>693</ele>
        <time>2021-10-21T12:26:25+02:00</time>
      </trkpt>
      <trkpt lat="43.74193" lon="3.46428">
        <ele>693</ele>
        <time>2021-10-21T12:26:43+02:00</time>
      </trkpt>
      <trkpt lat="43.74194" lon="3.46428">
        <ele>694</ele>
        <time>2021-10-21T12:27:32+02:00</time>
      </trkpt>
      <trkpt lat="43.74193" lon="3.46423">
        <ele>694</ele>
        <time>2021-10-21T12:28:31+02:00</time>
      </trkpt>
      <trkpt lat="43.74187" lon="3.46415">
        <ele>693</ele>
        <time>2021-10-21T12:28:51+02:00</time>
      </trkpt>
      <trkpt lat="43.74183" lon="3.46408">
        <ele>692</ele>
        <time>2021-10-21T12:29:01+02:00</time>
      </trkpt>
      <trkpt lat="43.74171" lon="3.46394">
        <ele>691</ele>
        <time>2021-10-21T12:29:25+02:00</time>
      </trkpt>
      <trkpt lat="43.7416" lon="3.46393">
        <ele>688</ele>
        <time>2021-10-21T12:29:44+02:00</time>
      </trkpt>
      <trkpt lat="43.74167" lon="3.46416">
        <ele>685</ele>
        <time>2021-10-21T12:30:09+02:00</time>
      </trkpt>
      <trkpt lat="43.74172" lon="3.46439">
        <ele>683</ele>
        <time>2021-10-21T12:30:33+02:00</time>
      </trkpt>
      <trkpt lat="43.74163" lon="3.46436">
        <ele>680</ele>
        <time>2021-10-21T12:30:55+02:00</time>
      </trkpt>
      <trkpt lat="43.74144" lon="3.46425">
        <ele>673</ele>
        <time>2021-10-21T12:31:20+02:00</time>
      </trkpt>
      <trkpt lat="43.74124" lon="3.4643">
        <ele>666</ele>
        <time>2021-10-21T12:31:41+02:00</time>
      </trkpt>
      <trkpt lat="43.74101" lon="3.46427">
        <ele>663</ele>
        <time>2021-10-21T12:32:02+02:00</time>
      </trkpt>
      <trkpt lat="43.74081" lon="3.46432">
        <ele>660</ele>
        <time>2021-10-21T12:32:24+02:00</time>
      </trkpt>
      <trkpt lat="43.74065" lon="3.46434">
        <ele>657</ele>
        <time>2021-10-21T12:32:47+02:00</time>
      </trkpt>
      <trkpt lat="43.74073" lon="3.46444">
        <ele>655</ele>
        <time>2021-10-21T12:33:10+02:00</time>
      </trkpt>
      <trkpt lat="43.7409" lon="3.46464">
        <ele>655</ele>
        <time>2021-10-21T12:33:39+02:00</time>
      </trkpt>
      <trkpt lat="43.741" lon="3.46476">
        <ele>655</ele>
        <time>2021-10-21T12:33:52+02:00</time>
      </trkpt>
      <trkpt lat="43.74109" lon="3.46509">
        <ele>654</ele>
        <time>2021-10-21T12:34:17+02:00</time>
      </trkpt>
      <trkpt lat="43.74117" lon="3.46547">
        <ele>654</ele>
        <time>2021-10-21T12:34:40+02:00</time>
      </trkpt>
      <trkpt lat="43.74126" lon="3.46575">
        <ele>653</ele>
        <time>2021-10-21T12:35:03+02:00</time>
      </trkpt>
      <trkpt lat="43.74133" lon="3.46588">
        <ele>652</ele>
        <time>2021-10-21T12:35:25+02:00</time>
      </trkpt>
      <trkpt lat="43.74137" lon="3.46595">
        <ele>651</ele>
        <time>2021-10-21T12:36:10+02:00</time>
      </trkpt>
      <trkpt lat="43.74126" lon="3.46591">
        <ele>648</ele>
        <time>2021-10-21T13:48:31+02:00</time>
      </trkpt>
      <trkpt lat="43.7412" lon="3.46585">
        <ele>648</ele>
        <time>2021-10-21T13:48:50+02:00</time>
      </trkpt>
      <trkpt lat="43.74113" lon="3.46578">
        <ele>646</ele>
        <time>2021-10-21T13:49:11+02:00</time>
      </trkpt>
      <trkpt lat="43.74119" lon="3.46607">
        <ele>640</ele>
        <time>2021-10-21T13:49:56+02:00</time>
      </trkpt>
      <trkpt lat="43.74121" lon="3.46633">
        <ele>630</ele>
        <time>2021-10-21T13:50:18+02:00</time>
      </trkpt>
      <trkpt lat="43.74107" lon="3.46613">
        <ele>634</ele>
        <time>2021-10-21T13:50:49+02:00</time>
      </trkpt>
      <trkpt lat="43.74098" lon="3.46603">
        <ele>633</ele>
        <time>2021-10-21T13:51:06+02:00</time>
      </trkpt>
      <trkpt lat="43.74088" lon="3.46592">
        <ele>632</ele>
        <time>2021-10-21T13:51:25+02:00</time>
      </trkpt>
      <trkpt lat="43.74079" lon="3.46587">
        <ele>630</ele>
        <time>2021-10-21T13:51:43+02:00</time>
      </trkpt>
      <trkpt lat="43.74071" lon="3.46577">
        <ele>630</ele>
        <time>2021-10-21T13:52:02+02:00</time>
      </trkpt>
      <trkpt lat="43.7407" lon="3.46599">
        <ele>625</ele>
        <time>2021-10-21T13:52:22+02:00</time>
      </trkpt>
      <trkpt lat="43.74072" lon="3.46614">
        <ele>622</ele>
        <time>2021-10-21T13:52:43+02:00</time>
      </trkpt>
      <trkpt lat="43.74077" lon="3.46631">
        <ele>619</ele>
        <time>2021-10-21T13:53:02+02:00</time>
      </trkpt>
      <trkpt lat="43.74077" lon="3.46647">
        <ele>616</ele>
        <time>2021-10-21T13:53:14+02:00</time>
      </trkpt>
      <trkpt lat="43.74076" lon="3.46661">
        <ele>612</ele>
        <time>2021-10-21T13:53:33+02:00</time>
      </trkpt>
      <trkpt lat="43.74072" lon="3.46682">
        <ele>607</ele>
        <time>2021-10-21T13:53:49+02:00</time>
      </trkpt>
      <trkpt lat="43.74071" lon="3.46697">
        <ele>602</ele>
        <time>2021-10-21T13:53:59+02:00</time>
      </trkpt>
      <trkpt lat="43.74061" lon="3.46721">
        <ele>595</ele>
        <time>2021-10-21T13:54:20+02:00</time>
      </trkpt>
      <trkpt lat="43.74051" lon="3.46731">
        <ele>597</ele>
        <time>2021-10-21T13:54:43+02:00</time>
      </trkpt>
      <trkpt lat="43.74039" lon="3.46744">
        <ele>600</ele>
        <time>2021-10-21T13:55:03+02:00</time>
      </trkpt>
      <trkpt lat="43.74028" lon="3.46763">
        <ele>604</ele>
        <time>2021-10-21T13:55:29+02:00</time>
      </trkpt>
      <trkpt lat="43.74018" lon="3.46782">
        <ele>606</ele>
        <time>2021-10-21T13:55:54+02:00</time>
      </trkpt>
      <trkpt lat="43.7401" lon="3.46789">
        <ele>609</ele>
        <time>2021-10-21T13:56:14+02:00</time>
      </trkpt>
      <trkpt lat="43.74001" lon="3.46791">
        <ele>612</ele>
        <time>2021-10-21T13:56:33+02:00</time>
      </trkpt>
      <trkpt lat="43.73989" lon="3.46785">
        <ele>609</ele>
        <time>2021-10-21T13:56:54+02:00</time>
      </trkpt>
      <trkpt lat="43.73985" lon="3.46769">
        <ele>607</ele>
        <time>2021-10-21T13:57:11+02:00</time>
      </trkpt>
      <trkpt lat="43.73984" lon="3.46755">
        <ele>606</ele>
        <time>2021-10-21T13:57:20+02:00</time>
      </trkpt>
      <trkpt lat="43.73982" lon="3.4674">
        <ele>605</ele>
        <time>2021-10-21T13:57:35+02:00</time>
      </trkpt>
      <trkpt lat="43.73979" lon="3.46726">
        <ele>604</ele>
        <time>2021-10-21T13:57:48+02:00</time>
      </trkpt>
      <trkpt lat="43.73974" lon="3.46717">
        <ele>603</ele>
        <time>2021-10-21T13:57:58+02:00</time>
      </trkpt>
      <trkpt lat="43.73964" lon="3.46703">
        <ele>602</ele>
        <time>2021-10-21T13:58:14+02:00</time>
      </trkpt>
      <trkpt lat="43.7396" lon="3.46698">
        <ele>602</ele>
        <time>2021-10-21T13:58:20+02:00</time>
      </trkpt>
      <trkpt lat="43.73947" lon="3.46677">
        <ele>605</ele>
        <time>2021-10-21T13:58:40+02:00</time>
      </trkpt>
      <trkpt lat="43.73926" lon="3.4666">
        <ele>606</ele>
        <time>2021-10-21T13:59:04+02:00</time>
      </trkpt>
      <trkpt lat="43.73902" lon="3.46643">
        <ele>606</ele>
        <time>2021-10-21T13:59:28+02:00</time>
      </trkpt>
      <trkpt lat="43.73884" lon="3.4662">
        <ele>608</ele>
        <time>2021-10-21T13:59:51+02:00</time>
      </trkpt>
      <trkpt lat="43.73878" lon="3.46612">
        <ele>609</ele>
        <time>2021-10-21T13:59:59+02:00</time>
      </trkpt>
      <trkpt lat="43.73865" lon="3.46604">
        <ele>608</ele>
        <time>2021-10-21T14:00:12+02:00</time>
      </trkpt>
      <trkpt lat="43.73845" lon="3.46585">
        <ele>605</ele>
        <time>2021-10-21T14:00:29+02:00</time>
      </trkpt>
      <trkpt lat="43.7384" lon="3.46571">
        <ele>605</ele>
        <time>2021-10-21T14:00:47+02:00</time>
      </trkpt>
      <trkpt lat="43.73835" lon="3.46545">
        <ele>607</ele>
        <time>2021-10-21T14:01:05+02:00</time>
      </trkpt>
      <trkpt lat="43.73831" lon="3.46518">
        <ele>610</ele>
        <time>2021-10-21T14:01:23+02:00</time>
      </trkpt>
      <trkpt lat="43.73828" lon="3.46509">
        <ele>610</ele>
        <time>2021-10-21T14:01:34+02:00</time>
      </trkpt>
      <trkpt lat="43.7382" lon="3.46488">
        <ele>613</ele>
        <time>2021-10-21T14:01:52+02:00</time>
      </trkpt>
      <trkpt lat="43.73809" lon="3.46472">
        <ele>613</ele>
        <time>2021-10-21T14:02:13+02:00</time>
      </trkpt>
      <trkpt lat="43.73797" lon="3.46463">
        <ele>612</ele>
        <time>2021-10-21T14:02:27+02:00</time>
      </trkpt>
      <trkpt lat="43.73787" lon="3.46447">
        <ele>612</ele>
        <time>2021-10-21T14:02:43+02:00</time>
      </trkpt>
      <trkpt lat="43.73781" lon="3.46437">
        <ele>613</ele>
        <time>2021-10-21T14:02:56+02:00</time>
      </trkpt>
      <trkpt lat="43.73779" lon="3.46433">
        <ele>613</ele>
        <time>2021-10-21T14:03:00+02:00</time>
      </trkpt>
      <trkpt lat="43.73772" lon="3.46422">
        <ele>613</ele>
        <time>2021-10-21T14:03:11+02:00</time>
      </trkpt>
      <trkpt lat="43.73764" lon="3.46415">
        <ele>613</ele>
        <time>2021-10-21T14:03:26+02:00</time>
      </trkpt>
      <trkpt lat="43.73758" lon="3.46409">
        <ele>613</ele>
        <time>2021-10-21T14:03:32+02:00</time>
      </trkpt>
      <trkpt lat="43.73749" lon="3.46402">
        <ele>613</ele>
        <time>2021-10-21T14:03:48+02:00</time>
      </trkpt>
      <trkpt lat="43.7373" lon="3.46402">
        <ele>613</ele>
        <time>2021-10-21T14:04:06+02:00</time>
      </trkpt>
      <trkpt lat="43.73709" lon="3.46396">
        <ele>617</ele>
        <time>2021-10-21T14:04:28+02:00</time>
      </trkpt>
      <trkpt lat="43.73696" lon="3.4639">
        <ele>620</ele>
        <time>2021-10-21T14:04:45+02:00</time>
      </trkpt>
      <trkpt lat="43.73693" lon="3.46391">
        <ele>620</ele>
        <time>2021-10-21T14:04:47+02:00</time>
      </trkpt>
      <trkpt lat="43.73673" lon="3.46386">
        <ele>621</ele>
        <time>2021-10-21T14:05:03+02:00</time>
      </trkpt>
      <trkpt lat="43.73672" lon="3.46382">
        <ele>621</ele>
        <time>2021-10-21T14:05:06+02:00</time>
      </trkpt>
      <trkpt lat="43.73667" lon="3.46374">
        <ele>621</ele>
        <time>2021-10-21T14:05:28+02:00</time>
      </trkpt>
      <trkpt lat="43.73667" lon="3.46361">
        <ele>620</ele>
        <time>2021-10-21T14:06:07+02:00</time>
      </trkpt>
      <trkpt lat="43.73667" lon="3.46345">
        <ele>619</ele>
        <time>2021-10-21T14:06:25+02:00</time>
      </trkpt>
      <trkpt lat="43.73664" lon="3.46344">
        <ele>619</ele>
        <time>2021-10-21T14:06:30+02:00</time>
      </trkpt>
      <trkpt lat="43.73657" lon="3.46344">
        <ele>618</ele>
        <time>2021-10-21T14:06:37+02:00</time>
      </trkpt>
      <trkpt lat="43.7365" lon="3.46341">
        <ele>617</ele>
        <time>2021-10-21T14:06:45+02:00</time>
      </trkpt>
      <trkpt lat="43.73646" lon="3.46333">
        <ele>615</ele>
        <time>2021-10-21T14:06:52+02:00</time>
      </trkpt>
      <trkpt lat="43.7365" lon="3.4632">
        <ele>613</ele>
        <time>2021-10-21T14:07:01+02:00</time>
      </trkpt>
      <trkpt lat="43.73651" lon="3.46311">
        <ele>611</ele>
        <time>2021-10-21T14:07:17+02:00</time>
      </trkpt>
      <trkpt lat="43.73654" lon="3.46308">
        <ele>611</ele>
        <time>2021-10-21T14:07:54+02:00</time>
      </trkpt>
      <trkpt lat="43.73658" lon="3.46304">
        <ele>612</ele>
        <time>2021-10-21T14:08:02+02:00</time>
      </trkpt>
      <trkpt lat="43.73664" lon="3.46294">
        <ele>611</ele>
        <time>2021-10-21T14:08:13+02:00</time>
      </trkpt>
      <trkpt lat="43.73665" lon="3.4629">
        <ele>611</ele>
        <time>2021-10-21T14:08:31+02:00</time>
      </trkpt>
      <trkpt lat="43.73675" lon="3.46266">
        <ele>611</ele>
        <time>2021-10-21T14:08:49+02:00</time>
      </trkpt>
      <trkpt lat="43.73681" lon="3.46238">
        <ele>610</ele>
        <time>2021-10-21T14:09:08+02:00</time>
      </trkpt>
      <trkpt lat="43.73683" lon="3.46231">
        <ele>610</ele>
        <time>2021-10-21T14:09:13+02:00</time>
      </trkpt>
      <trkpt lat="43.73684" lon="3.46227">
        <ele>610</ele>
        <time>2021-10-21T14:09:15+02:00</time>
      </trkpt>
      <trkpt lat="43.73686" lon="3.46218">
        <ele>609</ele>
        <time>2021-10-21T14:09:23+02:00</time>
      </trkpt>
      <trkpt lat="43.73691" lon="3.46198">
        <ele>608</ele>
        <time>2021-10-21T14:09:35+02:00</time>
      </trkpt>
      <trkpt lat="43.73694" lon="3.46186">
        <ele>607</ele>
        <time>2021-10-21T14:09:44+02:00</time>
      </trkpt>
      <trkpt lat="43.73698" lon="3.46171">
        <ele>606</ele>
        <time>2021-10-21T14:09:53+02:00</time>
      </trkpt>
      <trkpt lat="43.73699" lon="3.46167">
        <ele>605</ele>
        <time>2021-10-21T14:09:56+02:00</time>
      </trkpt>
      <trkpt lat="43.73703" lon="3.46154">
        <ele>606</ele>
        <time>2021-10-21T14:10:05+02:00</time>
      </trkpt>
      <trkpt lat="43.73708" lon="3.46134">
        <ele>607</ele>
        <time>2021-10-21T14:10:16+02:00</time>
      </trkpt>
      <trkpt lat="43.73709" lon="3.46127">
        <ele>607</ele>
        <time>2021-10-21T14:10:21+02:00</time>
      </trkpt>
      <trkpt lat="43.73711" lon="3.46119">
        <ele>607</ele>
        <time>2021-10-21T14:10:26+02:00</time>
      </trkpt>
      <trkpt lat="43.73712" lon="3.46117">
        <ele>607</ele>
        <time>2021-10-21T14:10:27+02:00</time>
      </trkpt>
      <trkpt lat="43.73714" lon="3.4611">
        <ele>607</ele>
        <time>2021-10-21T14:10:33+02:00</time>
      </trkpt>
      <trkpt lat="43.73714" lon="3.46109">
        <ele>607</ele>
        <time>2021-10-21T14:10:34+02:00</time>
      </trkpt>
      <trkpt lat="43.73714" lon="3.46107">
        <ele>607</ele>
        <time>2021-10-21T14:10:35+02:00</time>
      </trkpt>
      <trkpt lat="43.73715" lon="3.46105">
        <ele>607</ele>
        <time>2021-10-21T14:10:36+02:00</time>
      </trkpt>
      <trkpt lat="43.73715" lon="3.46104">
        <ele>607</ele>
        <time>2021-10-21T14:10:37+02:00</time>
      </trkpt>
      <trkpt lat="43.73716" lon="3.46102">
        <ele>608</ele>
        <time>2021-10-21T14:10:38+02:00</time>
      </trkpt>
      <trkpt lat="43.73717" lon="3.461">
        <ele>608</ele>
        <time>2021-10-21T14:10:39+02:00</time>
      </trkpt>
      <trkpt lat="43.73717" lon="3.46098">
        <ele>608</ele>
        <time>2021-10-21T14:10:40+02:00</time>
      </trkpt>
      <trkpt lat="43.73718" lon="3.46095">
        <ele>609</ele>
        <time>2021-10-21T14:10:42+02:00</time>
      </trkpt>
      <trkpt lat="43.7372" lon="3.46089">
        <ele>609</ele>
        <time>2021-10-21T14:10:47+02:00</time>
      </trkpt>
      <trkpt lat="43.7372" lon="3.46087">
        <ele>609</ele>
        <time>2021-10-21T14:10:48+02:00</time>
      </trkpt>
      <trkpt lat="43.7372" lon="3.46085">
        <ele>608</ele>
        <time>2021-10-21T14:10:49+02:00</time>
      </trkpt>
      <trkpt lat="43.7372" lon="3.46084">
        <ele>608</ele>
        <time>2021-10-21T14:10:50+02:00</time>
      </trkpt>
      <trkpt lat="43.7372" lon="3.46082">
        <ele>608</ele>
        <time>2021-10-21T14:10:51+02:00</time>
      </trkpt>
      <trkpt lat="43.73722" lon="3.46058">
        <ele>605</ele>
        <time>2021-10-21T14:11:08+02:00</time>
      </trkpt>
      <trkpt lat="43.73724" lon="3.46028">
        <ele>604</ele>
        <time>2021-10-21T14:11:25+02:00</time>
      </trkpt>
      <trkpt lat="43.73727" lon="3.46001">
        <ele>604</ele>
        <time>2021-10-21T14:11:41+02:00</time>
      </trkpt>
      <trkpt lat="43.73728" lon="3.45973">
        <ele>603</ele>
        <time>2021-10-21T14:11:58+02:00</time>
      </trkpt>
      <trkpt lat="43.73723" lon="3.45947">
        <ele>598</ele>
        <time>2021-10-21T14:12:16+02:00</time>
      </trkpt>
      <trkpt lat="43.73722" lon="3.45946">
        <ele>597</ele>
        <time>2021-10-21T14:12:17+02:00</time>
      </trkpt>
      <trkpt lat="43.73721" lon="3.45944">
        <ele>596</ele>
        <time>2021-10-21T14:12:18+02:00</time>
      </trkpt>
      <trkpt lat="43.73721" lon="3.45942">
        <ele>596</ele>
        <time>2021-10-21T14:12:19+02:00</time>
      </trkpt>
      <trkpt lat="43.7372" lon="3.4594">
        <ele>596</ele>
        <time>2021-10-21T14:12:20+02:00</time>
      </trkpt>
      <trkpt lat="43.7372" lon="3.45939">
        <ele>595</ele>
        <time>2021-10-21T14:12:21+02:00</time>
      </trkpt>
      <trkpt lat="43.73724" lon="3.45914">
        <ele>598</ele>
        <time>2021-10-21T14:12:36+02:00</time>
      </trkpt>
      <trkpt lat="43.73725" lon="3.45912">
        <ele>598</ele>
        <time>2021-10-21T14:12:37+02:00</time>
      </trkpt>
      <trkpt lat="43.73725" lon="3.45911">
        <ele>599</ele>
        <time>2021-10-21T14:12:38+02:00</time>
      </trkpt>
      <trkpt lat="43.73727" lon="3.45906">
        <ele>599</ele>
        <time>2021-10-21T14:12:52+02:00</time>
      </trkpt>
      <trkpt lat="43.73728" lon="3.45903">
        <ele>600</ele>
        <time>2021-10-21T14:12:57+02:00</time>
      </trkpt>
      <trkpt lat="43.73727" lon="3.45901">
        <ele>600</ele>
        <time>2021-10-21T14:12:58+02:00</time>
      </trkpt>
      <trkpt lat="43.73727" lon="3.459">
        <ele>600</ele>
        <time>2021-10-21T14:12:59+02:00</time>
      </trkpt>
      <trkpt lat="43.73727" lon="3.45896">
        <ele>599</ele>
        <time>2021-10-21T14:13:02+02:00</time>
      </trkpt>
      <trkpt lat="43.7373" lon="3.45871">
        <ele>601</ele>
        <time>2021-10-21T14:13:19+02:00</time>
      </trkpt>
      <trkpt lat="43.73735" lon="3.45852">
        <ele>605</ele>
        <time>2021-10-21T14:13:35+02:00</time>
      </trkpt>
      <trkpt lat="43.73736" lon="3.45834">
        <ele>605</ele>
        <time>2021-10-21T14:13:50+02:00</time>
      </trkpt>
      <trkpt lat="43.73737" lon="3.45812">
        <ele>606</ele>
        <time>2021-10-21T14:14:06+02:00</time>
      </trkpt>
      <trkpt lat="43.73737" lon="3.45808">
        <ele>605</ele>
        <time>2021-10-21T14:14:09+02:00</time>
      </trkpt>
      <trkpt lat="43.73736" lon="3.45802">
        <ele>605</ele>
        <time>2021-10-21T14:14:13+02:00</time>
      </trkpt>
      <trkpt lat="43.73735" lon="3.45782">
        <ele>606</ele>
        <time>2021-10-21T14:14:30+02:00</time>
      </trkpt>
      <trkpt lat="43.73733" lon="3.45772">
        <ele>606</ele>
        <time>2021-10-21T14:14:37+02:00</time>
      </trkpt>
      <trkpt lat="43.73729" lon="3.45754">
        <ele>606</ele>
        <time>2021-10-21T14:14:52+02:00</time>
      </trkpt>
      <trkpt lat="43.73727" lon="3.45729">
        <ele>606</ele>
        <time>2021-10-21T14:15:15+02:00</time>
      </trkpt>
      <trkpt lat="43.73727" lon="3.45702">
        <ele>608</ele>
        <time>2021-10-21T14:15:41+02:00</time>
      </trkpt>
      <trkpt lat="43.7373" lon="3.45679">
        <ele>610</ele>
        <time>2021-10-21T14:16:00+02:00</time>
      </trkpt>
      <trkpt lat="43.73734" lon="3.45658">
        <ele>614</ele>
        <time>2021-10-21T14:16:22+02:00</time>
      </trkpt>
      <trkpt lat="43.73737" lon="3.45634">
        <ele>616</ele>
        <time>2021-10-21T14:16:45+02:00</time>
      </trkpt>
      <trkpt lat="43.73742" lon="3.45609">
        <ele>619</ele>
        <time>2021-10-21T14:17:07+02:00</time>
      </trkpt>
      <trkpt lat="43.73743" lon="3.456">
        <ele>621</ele>
        <time>2021-10-21T14:17:17+02:00</time>
      </trkpt>
      <trkpt lat="43.73746" lon="3.45579">
        <ele>623</ele>
        <time>2021-10-21T14:17:36+02:00</time>
      </trkpt>
      <trkpt lat="43.73757" lon="3.4555">
        <ele>625</ele>
        <time>2021-10-21T14:18:02+02:00</time>
      </trkpt>
      <trkpt lat="43.73759" lon="3.45536">
        <ele>624</ele>
        <time>2021-10-21T14:18:13+02:00</time>
      </trkpt>
      <trkpt lat="43.73763" lon="3.45527">
        <ele>624</ele>
        <time>2021-10-21T14:18:21+02:00</time>
      </trkpt>
      <trkpt lat="43.7377" lon="3.4552">
        <ele>624</ele>
        <time>2021-10-21T14:18:37+02:00</time>
      </trkpt>
      <trkpt lat="43.7377" lon="3.45522">
        <ele>625</ele>
        <time>2021-10-21T14:19:15+02:00</time>
      </trkpt>
      <trkpt lat="43.73788" lon="3.45525">
        <ele>627</ele>
        <time>2021-10-21T14:23:04+02:00</time>
      </trkpt>
      <trkpt lat="43.73813" lon="3.45532">
        <ele>628</ele>
        <time>2021-10-21T14:23:28+02:00</time>
      </trkpt>
      <trkpt lat="43.73829" lon="3.45541">
        <ele>630</ele>
        <time>2021-10-21T14:23:47+02:00</time>
      </trkpt>
      <trkpt lat="43.7385" lon="3.45549">
        <ele>630</ele>
        <time>2021-10-21T14:24:10+02:00</time>
      </trkpt>
      <trkpt lat="43.73854" lon="3.4555">
        <ele>630</ele>
        <time>2021-10-21T14:24:14+02:00</time>
      </trkpt>
      <trkpt lat="43.73871" lon="3.45561">
        <ele>632</ele>
        <time>2021-10-21T14:24:36+02:00</time>
      </trkpt>
      <trkpt lat="43.73889" lon="3.4557">
        <ele>633</ele>
        <time>2021-10-21T14:24:58+02:00</time>
      </trkpt>
      <trkpt lat="43.73906" lon="3.45575">
        <ele>633</ele>
        <time>2021-10-21T14:25:20+02:00</time>
      </trkpt>
      <trkpt lat="43.73908" lon="3.45576">
        <ele>633</ele>
        <time>2021-10-21T14:25:23+02:00</time>
      </trkpt>
      <trkpt lat="43.73929" lon="3.45584">
        <ele>635</ele>
        <time>2021-10-21T14:25:44+02:00</time>
      </trkpt>
      <trkpt lat="43.73946" lon="3.45596">
        <ele>639</ele>
        <time>2021-10-21T14:26:03+02:00</time>
      </trkpt>
      <trkpt lat="43.73968" lon="3.45606">
        <ele>641</ele>
        <time>2021-10-21T14:26:26+02:00</time>
      </trkpt>
      <trkpt lat="43.73987" lon="3.45618">
        <ele>648</ele>
        <time>2021-10-21T14:26:48+02:00</time>
      </trkpt>
      <trkpt lat="43.74004" lon="3.45619">
        <ele>650</ele>
        <time>2021-10-21T14:27:06+02:00</time>
      </trkpt>
      <trkpt lat="43.74021" lon="3.45616">
        <ele>652</ele>
        <time>2021-10-21T14:27:28+02:00</time>
      </trkpt>
      <trkpt lat="43.74035" lon="3.45615">
        <ele>654</ele>
        <time>2021-10-21T14:27:43+02:00</time>
      </trkpt>
      <trkpt lat="43.7406" lon="3.45619">
        <ele>659</ele>
        <time>2021-10-21T14:28:08+02:00</time>
      </trkpt>
      <trkpt lat="43.7408" lon="3.45611">
        <ele>658</ele>
        <time>2021-10-21T14:28:31+02:00</time>
      </trkpt>
      <trkpt lat="43.74094" lon="3.45606">
        <ele>659</ele>
        <time>2021-10-21T14:28:50+02:00</time>
      </trkpt>
      <trkpt lat="43.74102" lon="3.45607">
        <ele>661</ele>
        <time>2021-10-21T14:28:57+02:00</time>
      </trkpt>
      <trkpt lat="43.74123" lon="3.45603">
        <ele>664</ele>
        <time>2021-10-21T14:29:21+02:00</time>
      </trkpt>
      <trkpt lat="43.74142" lon="3.456">
        <ele>665</ele>
        <time>2021-10-21T14:29:43+02:00</time>
      </trkpt>
      <trkpt lat="43.74157" lon="3.45595">
        <ele>664</ele>
        <time>2021-10-21T14:30:01+02:00</time>
      </trkpt>
      <trkpt lat="43.7418" lon="3.45595">
        <ele>665</ele>
        <time>2021-10-21T14:30:25+02:00</time>
      </trkpt>
      <trkpt lat="43.74202" lon="3.45592">
        <ele>662</ele>
        <time>2021-10-21T14:30:47+02:00</time>
      </trkpt>
      <trkpt lat="43.74218" lon="3.45598">
        <ele>660</ele>
        <time>2021-10-21T14:31:10+02:00</time>
      </trkpt>
      <trkpt lat="43.74242" lon="3.45611">
        <ele>657</ele>
        <time>2021-10-21T14:31:34+02:00</time>
      </trkpt>
      <trkpt lat="43.74246" lon="3.45613">
        <ele>657</ele>
        <time>2021-10-21T14:31:38+02:00</time>
      </trkpt>
      <trkpt lat="43.74267" lon="3.45625">
        <ele>656</ele>
        <time>2021-10-21T14:32:02+02:00</time>
      </trkpt>
      <trkpt lat="43.74284" lon="3.45642">
        <ele>655</ele>
        <time>2021-10-21T14:32:19+02:00</time>
      </trkpt>
      <trkpt lat="43.74306" lon="3.45669">
        <ele>655</ele>
        <time>2021-10-21T14:32:44+02:00</time>
      </trkpt>
      <trkpt lat="43.74319" lon="3.45683">
        <ele>655</ele>
        <time>2021-10-21T14:33:00+02:00</time>
      </trkpt>
      <trkpt lat="43.7433" lon="3.45693">
        <ele>653</ele>
        <time>2021-10-21T14:33:14+02:00</time>
      </trkpt>
      <trkpt lat="43.74349" lon="3.45711">
        <ele>655</ele>
        <time>2021-10-21T14:33:37+02:00</time>
      </trkpt>
      <trkpt lat="43.74362" lon="3.45723">
        <ele>657</ele>
        <time>2021-10-21T14:33:57+02:00</time>
      </trkpt>
      <trkpt lat="43.74367" lon="3.45725">
        <ele>658</ele>
        <time>2021-10-21T14:34:03+02:00</time>
      </trkpt>
      <trkpt lat="43.74373" lon="3.45727">
        <ele>659</ele>
        <time>2021-10-21T14:34:08+02:00</time>
      </trkpt>
      <trkpt lat="43.74375" lon="3.45726">
        <ele>659</ele>
        <time>2021-10-21T14:34:12+02:00</time>
      </trkpt>
      <trkpt lat="43.74386" lon="3.45718">
        <ele>657</ele>
        <time>2021-10-21T14:34:26+02:00</time>
      </trkpt>
      <trkpt lat="43.74405" lon="3.45702">
        <ele>656</ele>
        <time>2021-10-21T14:34:43+02:00</time>
      </trkpt>
      <trkpt lat="43.74418" lon="3.45691">
        <ele>656</ele>
        <time>2021-10-21T14:34:58+02:00</time>
      </trkpt>
      <trkpt lat="43.74431" lon="3.45677">
        <ele>653</ele>
        <time>2021-10-21T14:35:14+02:00</time>
      </trkpt>
      <trkpt lat="43.74443" lon="3.45672">
        <ele>650</ele>
        <time>2021-10-21T14:35:27+02:00</time>
      </trkpt>
      <trkpt lat="43.74469" lon="3.45691">
        <ele>648</ele>
        <time>2021-10-21T14:35:51+02:00</time>
      </trkpt>
      <trkpt lat="43.7449" lon="3.45706">
        <ele>649</ele>
        <time>2021-10-21T14:36:15+02:00</time>
      </trkpt>
      <trkpt lat="43.74514" lon="3.4571">
        <ele>646</ele>
        <time>2021-10-21T14:36:39+02:00</time>
      </trkpt>
      <trkpt lat="43.74541" lon="3.4572">
        <ele>646</ele>
        <time>2021-10-21T14:37:03+02:00</time>
      </trkpt>
      <trkpt lat="43.74566" lon="3.45726">
        <ele>650</ele>
        <time>2021-10-21T14:37:25+02:00</time>
      </trkpt>
      <trkpt lat="43.74589" lon="3.45725">
        <ele>652</ele>
        <time>2021-10-21T14:37:47+02:00</time>
      </trkpt>
      <trkpt lat="43.74609" lon="3.45714">
        <ele>648</ele>
        <time>2021-10-21T14:38:06+02:00</time>
      </trkpt>
      <trkpt lat="43.74631" lon="3.4571">
        <ele>648</ele>
        <time>2021-10-21T14:38:26+02:00</time>
      </trkpt>
      <trkpt lat="43.7465" lon="3.45708">
        <ele>649</ele>
        <time>2021-10-21T14:38:43+02:00</time>
      </trkpt>
      <trkpt lat="43.74656" lon="3.45707">
        <ele>650</ele>
        <time>2021-10-21T14:38:48+02:00</time>
      </trkpt>
      <trkpt lat="43.74675" lon="3.457">
        <ele>649</ele>
        <time>2021-10-21T14:39:05+02:00</time>
      </trkpt>
      <trkpt lat="43.74676" lon="3.45697">
        <ele>648</ele>
        <time>2021-10-21T14:39:07+02:00</time>
      </trkpt>
      <trkpt lat="43.7468" lon="3.45694">
        <ele>647</ele>
        <time>2021-10-21T14:39:11+02:00</time>
      </trkpt>
      <trkpt lat="43.74682" lon="3.45694">
        <ele>648</ele>
        <time>2021-10-21T14:39:13+02:00</time>
      </trkpt>
      <trkpt lat="43.74692" lon="3.45692">
        <ele>650</ele>
        <time>2021-10-21T14:39:23+02:00</time>
      </trkpt>
      <trkpt lat="43.74702" lon="3.45689">
        <ele>651</ele>
        <time>2021-10-21T14:39:33+02:00</time>
      </trkpt>
      <trkpt lat="43.74724" lon="3.45673">
        <ele>652</ele>
        <time>2021-10-21T14:39:56+02:00</time>
      </trkpt>
      <trkpt lat="43.74735" lon="3.45655">
        <ele>646</ele>
        <time>2021-10-21T14:40:13+02:00</time>
      </trkpt>
      <trkpt lat="43.74748" lon="3.45634">
        <ele>643</ele>
        <time>2021-10-21T14:40:32+02:00</time>
      </trkpt>
      <trkpt lat="43.74763" lon="3.45614">
        <ele>645</ele>
        <time>2021-10-21T14:40:52+02:00</time>
      </trkpt>
      <trkpt lat="43.74773" lon="3.45599">
        <ele>647</ele>
        <time>2021-10-21T14:41:05+02:00</time>
      </trkpt>
      <trkpt lat="43.74776" lon="3.45579">
        <ele>644</ele>
        <time>2021-10-21T14:41:20+02:00</time>
      </trkpt>
      <trkpt lat="43.74778" lon="3.45567">
        <ele>641</ele>
        <time>2021-10-21T14:41:27+02:00</time>
      </trkpt>
      <trkpt lat="43.7478" lon="3.45565">
        <ele>642</ele>
        <time>2021-10-21T14:41:30+02:00</time>
      </trkpt>
      <trkpt lat="43.74786" lon="3.45548">
        <ele>640</ele>
        <time>2021-10-21T14:41:42+02:00</time>
      </trkpt>
      <trkpt lat="43.74794" lon="3.45541">
        <ele>643</ele>
        <time>2021-10-21T14:41:49+02:00</time>
      </trkpt>
      <trkpt lat="43.74803" lon="3.45522">
        <ele>644</ele>
        <time>2021-10-21T14:42:05+02:00</time>
      </trkpt>
      <trkpt lat="43.74803" lon="3.4552">
        <ele>643</ele>
        <time>2021-10-21T14:42:07+02:00</time>
      </trkpt>
      <trkpt lat="43.74805" lon="3.45516">
        <ele>643</ele>
        <time>2021-10-21T14:42:10+02:00</time>
      </trkpt>
      <trkpt lat="43.74814" lon="3.45493">
        <ele>643</ele>
        <time>2021-10-21T14:42:27+02:00</time>
      </trkpt>
      <trkpt lat="43.7481" lon="3.45473">
        <ele>636</ele>
        <time>2021-10-21T14:42:42+02:00</time>
      </trkpt>
      <trkpt lat="43.74803" lon="3.45451">
        <ele>632</ele>
        <time>2021-10-21T14:42:59+02:00</time>
      </trkpt>
      <trkpt lat="43.74802" lon="3.45444">
        <ele>632</ele>
        <time>2021-10-21T14:43:04+02:00</time>
      </trkpt>
      <trkpt lat="43.74799" lon="3.45422">
        <ele>632</ele>
        <time>2021-10-21T14:43:18+02:00</time>
      </trkpt>
      <trkpt lat="43.74805" lon="3.45395">
        <ele>639</ele>
        <time>2021-10-21T14:43:34+02:00</time>
      </trkpt>
      <trkpt lat="43.74804" lon="3.45383">
        <ele>639</ele>
        <time>2021-10-21T14:43:43+02:00</time>
      </trkpt>
      <trkpt lat="43.74793" lon="3.45359">
        <ele>635</ele>
        <time>2021-10-21T14:44:02+02:00</time>
      </trkpt>
      <trkpt lat="43.74789" lon="3.45334">
        <ele>634</ele>
        <time>2021-10-21T14:44:17+02:00</time>
      </trkpt>
      <trkpt lat="43.74787" lon="3.45303">
        <ele>636</ele>
        <time>2021-10-21T14:44:37+02:00</time>
      </trkpt>
      <trkpt lat="43.74788" lon="3.45289">
        <ele>637</ele>
        <time>2021-10-21T14:44:55+02:00</time>
      </trkpt>
      <trkpt lat="43.74787" lon="3.45289">
        <ele>637</ele>
        <time>2021-10-21T14:45:46+02:00</time>
      </trkpt>
      <trkpt lat="43.74789" lon="3.45287">
        <ele>639</ele>
        <time>2021-10-21T14:46:23+02:00</time>
      </trkpt>
      <trkpt lat="43.74791" lon="3.45288">
        <ele>640</ele>
        <time>2021-10-21T14:47:01+02:00</time>
      </trkpt>
      <trkpt lat="43.74789" lon="3.45289">
        <ele>639</ele>
        <time>2021-10-21T14:47:37+02:00</time>
      </trkpt>
      <trkpt lat="43.74791" lon="3.45292">
        <ele>639</ele>
        <time>2021-10-21T14:48:02+02:00</time>
      </trkpt>
      <trkpt lat="43.74786" lon="3.45284">
        <ele>637</ele>
        <time>2021-10-21T14:48:36+02:00</time>
      </trkpt>
      <trkpt lat="43.74787" lon="3.4528">
        <ele>638</ele>
        <time>2021-10-21T14:48:39+02:00</time>
      </trkpt>
      <trkpt lat="43.74787" lon="3.45246">
        <ele>636</ele>
        <time>2021-10-21T14:48:59+02:00</time>
      </trkpt>
      <trkpt lat="43.74784" lon="3.45219">
        <ele>632</ele>
        <time>2021-10-21T14:49:14+02:00</time>
      </trkpt>
      <trkpt lat="43.74785" lon="3.4519">
        <ele>630</ele>
        <time>2021-10-21T14:49:34+02:00</time>
      </trkpt>
      <trkpt lat="43.74785" lon="3.45186">
        <ele>630</ele>
        <time>2021-10-21T14:49:36+02:00</time>
      </trkpt>
      <trkpt lat="43.74787" lon="3.4516">
        <ele>627</ele>
        <time>2021-10-21T14:49:53+02:00</time>
      </trkpt>
      <trkpt lat="43.7479" lon="3.45139">
        <ele>623</ele>
        <time>2021-10-21T14:50:05+02:00</time>
      </trkpt>
      <trkpt lat="43.74795" lon="3.45125">
        <ele>620</ele>
        <time>2021-10-21T14:50:14+02:00</time>
      </trkpt>
      <trkpt lat="43.748" lon="3.4512">
        <ele>620</ele>
        <time>2021-10-21T14:50:20+02:00</time>
      </trkpt>
      <trkpt lat="43.7481" lon="3.45115">
        <ele>619</ele>
        <time>2021-10-21T14:50:29+02:00</time>
      </trkpt>
      <trkpt lat="43.7483" lon="3.4511">
        <ele>619</ele>
        <time>2021-10-21T14:50:46+02:00</time>
      </trkpt>
      <trkpt lat="43.74831" lon="3.45109">
        <ele>619</ele>
        <time>2021-10-21T14:50:47+02:00</time>
      </trkpt>
      <trkpt lat="43.74844" lon="3.45109">
        <ele>620</ele>
        <time>2021-10-21T14:50:59+02:00</time>
      </trkpt>
      <trkpt lat="43.74848" lon="3.45106">
        <ele>620</ele>
        <time>2021-10-21T14:51:04+02:00</time>
      </trkpt>
      <trkpt lat="43.74853" lon="3.4509">
        <ele>618</ele>
        <time>2021-10-21T14:51:17+02:00</time>
      </trkpt>
      <trkpt lat="43.74846" lon="3.4507">
        <ele>614</ele>
        <time>2021-10-21T14:51:33+02:00</time>
      </trkpt>
      <trkpt lat="43.74839" lon="3.45058">
        <ele>612</ele>
        <time>2021-10-21T14:51:49+02:00</time>
      </trkpt>
      <trkpt lat="43.74837" lon="3.45057">
        <ele>612</ele>
        <time>2021-10-21T14:51:51+02:00</time>
      </trkpt>
      <trkpt lat="43.74822" lon="3.45061">
        <ele>610</ele>
        <time>2021-10-21T14:52:11+02:00</time>
      </trkpt>
      <trkpt lat="43.7481" lon="3.45064">
        <ele>609</ele>
        <time>2021-10-21T14:52:27+02:00</time>
      </trkpt>
      <trkpt lat="43.74791" lon="3.45061">
        <ele>605</ele>
        <time>2021-10-21T14:52:49+02:00</time>
      </trkpt>
      <trkpt lat="43.74787" lon="3.45061">
        <ele>605</ele>
        <time>2021-10-21T14:52:53+02:00</time>
      </trkpt>
      <trkpt lat="43.74785" lon="3.45055">
        <ele>603</ele>
        <time>2021-10-21T14:53:09+02:00</time>
      </trkpt>
      <trkpt lat="43.74775" lon="3.45046">
        <ele>601</ele>
        <time>2021-10-21T14:53:24+02:00</time>
      </trkpt>
      <trkpt lat="43.74772" lon="3.45036">
        <ele>599</ele>
        <time>2021-10-21T14:53:46+02:00</time>
      </trkpt>
      <trkpt lat="43.74771" lon="3.45017">
        <ele>598</ele>
        <time>2021-10-21T14:54:02+02:00</time>
      </trkpt>
      <trkpt lat="43.74761" lon="3.4499">
        <ele>595</ele>
        <time>2021-10-21T14:54:24+02:00</time>
      </trkpt>
      <trkpt lat="43.7475" lon="3.44963">
        <ele>592</ele>
        <time>2021-10-21T14:54:47+02:00</time>
      </trkpt>
      <trkpt lat="43.74743" lon="3.44951">
        <ele>591</ele>
        <time>2021-10-21T14:55:04+02:00</time>
      </trkpt>
      <trkpt lat="43.74743" lon="3.44954">
        <ele>591</ele>
        <time>2021-10-21T14:55:07+02:00</time>
      </trkpt>
      <trkpt lat="43.74749" lon="3.44978">
        <ele>590</ele>
        <time>2021-10-21T14:55:30+02:00</time>
      </trkpt>
      <trkpt lat="43.74745" lon="3.44983">
        <ele>587</ele>
        <time>2021-10-21T14:55:51+02:00</time>
      </trkpt>
      <trkpt lat="43.7474" lon="3.44975">
        <ele>585</ele>
        <time>2021-10-21T14:55:58+02:00</time>
      </trkpt>
      <trkpt lat="43.74726" lon="3.44956">
        <ele>582</ele>
        <time>2021-10-21T14:56:17+02:00</time>
      </trkpt>
      <trkpt lat="43.74722" lon="3.44954">
        <ele>581</ele>
        <time>2021-10-21T14:56:24+02:00</time>
      </trkpt>
      <trkpt lat="43.74718" lon="3.44954">
        <ele>578</ele>
        <time>2021-10-21T14:56:31+02:00</time>
      </trkpt>
      <trkpt lat="43.74707" lon="3.44947">
        <ele>574</ele>
        <time>2021-10-21T14:56:45+02:00</time>
      </trkpt>
      <trkpt lat="43.74699" lon="3.4494">
        <ele>572</ele>
        <time>2021-10-21T14:56:54+02:00</time>
      </trkpt>
      <trkpt lat="43.74684" lon="3.44936">
        <ele>568</ele>
        <time>2021-10-21T14:57:08+02:00</time>
      </trkpt>
      <trkpt lat="43.74677" lon="3.44936">
        <ele>566</ele>
        <time>2021-10-21T14:57:14+02:00</time>
      </trkpt>
      <trkpt lat="43.74674" lon="3.44933">
        <ele>566</ele>
        <time>2021-10-21T14:57:17+02:00</time>
      </trkpt>
      <trkpt lat="43.74666" lon="3.44933">
        <ele>564</ele>
        <time>2021-10-21T14:57:24+02:00</time>
      </trkpt>
      <trkpt lat="43.74647" lon="3.44932">
        <ele>561</ele>
        <time>2021-10-21T14:57:40+02:00</time>
      </trkpt>
      <trkpt lat="43.74632" lon="3.4493">
        <ele>560</ele>
        <time>2021-10-21T14:57:55+02:00</time>
      </trkpt>
      <trkpt lat="43.74629" lon="3.4493">
        <ele>560</ele>
        <time>2021-10-21T14:57:59+02:00</time>
      </trkpt>
      <trkpt lat="43.74611" lon="3.44937">
        <ele>555</ele>
        <time>2021-10-21T14:58:14+02:00</time>
      </trkpt>
      <trkpt lat="43.74597" lon="3.44941">
        <ele>551</ele>
        <time>2021-10-21T14:58:28+02:00</time>
      </trkpt>
      <trkpt lat="43.74591" lon="3.44941">
        <ele>550</ele>
        <time>2021-10-21T14:58:34+02:00</time>
      </trkpt>
      <trkpt lat="43.74587" lon="3.44933">
        <ele>554</ele>
        <time>2021-10-21T14:58:43+02:00</time>
      </trkpt>
      <trkpt lat="43.74576" lon="3.44926">
        <ele>556</ele>
        <time>2021-10-21T14:58:53+02:00</time>
      </trkpt>
      <trkpt lat="43.74566" lon="3.44906">
        <ele>562</ele>
        <time>2021-10-21T14:59:09+02:00</time>
      </trkpt>
      <trkpt lat="43.74557" lon="3.44891">
        <ele>563</ele>
        <time>2021-10-21T14:59:23+02:00</time>
      </trkpt>
      <trkpt lat="43.74552" lon="3.44876">
        <ele>565</ele>
        <time>2021-10-21T14:59:36+02:00</time>
      </trkpt>
      <trkpt lat="43.74547" lon="3.44854">
        <ele>566</ele>
        <time>2021-10-21T14:59:53+02:00</time>
      </trkpt>
      <trkpt lat="43.74537" lon="3.44831">
        <ele>560</ele>
        <time>2021-10-21T15:00:12+02:00</time>
      </trkpt>
      <trkpt lat="43.74532" lon="3.44813">
        <ele>557</ele>
        <time>2021-10-21T15:00:28+02:00</time>
      </trkpt>
      <trkpt lat="43.74531" lon="3.44801">
        <ele>557</ele>
        <time>2021-10-21T15:00:38+02:00</time>
      </trkpt>
      <trkpt lat="43.74528" lon="3.44789">
        <ele>555</ele>
        <time>2021-10-21T15:00:47+02:00</time>
      </trkpt>
      <trkpt lat="43.74525" lon="3.44771">
        <ele>555</ele>
        <time>2021-10-21T15:01:00+02:00</time>
      </trkpt>
      <trkpt lat="43.74526" lon="3.44744">
        <ele>558</ele>
        <time>2021-10-21T15:01:20+02:00</time>
      </trkpt>
      <trkpt lat="43.74526" lon="3.44726">
        <ele>560</ele>
        <time>2021-10-21T15:01:35+02:00</time>
      </trkpt>
      <trkpt lat="43.74522" lon="3.44702">
        <ele>559</ele>
        <time>2021-10-21T15:01:54+02:00</time>
      </trkpt>
      <trkpt lat="43.74516" lon="3.44679">
        <ele>556</ele>
        <time>2021-10-21T15:02:11+02:00</time>
      </trkpt>
      <trkpt lat="43.74513" lon="3.44669">
        <ele>555</ele>
        <time>2021-10-21T15:02:19+02:00</time>
      </trkpt>
      <trkpt lat="43.74507" lon="3.44649">
        <ele>550</ele>
        <time>2021-10-21T15:02:36+02:00</time>
      </trkpt>
      <trkpt lat="43.74505" lon="3.44641">
        <ele>549</ele>
        <time>2021-10-21T15:02:43+02:00</time>
      </trkpt>
      <trkpt lat="43.74502" lon="3.44628">
        <ele>547</ele>
        <time>2021-10-21T15:02:55+02:00</time>
      </trkpt>
      <trkpt lat="43.74502" lon="3.44615">
        <ele>548</ele>
        <time>2021-10-21T15:03:02+02:00</time>
      </trkpt>
      <trkpt lat="43.74496" lon="3.4459">
        <ele>542</ele>
        <time>2021-10-21T15:03:20+02:00</time>
      </trkpt>
      <trkpt lat="43.74497" lon="3.4457">
        <ele>541</ele>
        <time>2021-10-21T15:03:34+02:00</time>
      </trkpt>
      <trkpt lat="43.74498" lon="3.44561">
        <ele>540</ele>
        <time>2021-10-21T15:03:38+02:00</time>
      </trkpt>
      <trkpt lat="43.74505" lon="3.44544">
        <ele>541</ele>
        <time>2021-10-21T15:03:48+02:00</time>
      </trkpt>
      <trkpt lat="43.74508" lon="3.44527">
        <ele>539</ele>
        <time>2021-10-21T15:04:01+02:00</time>
      </trkpt>
      <trkpt lat="43.74512" lon="3.44511">
        <ele>536</ele>
        <time>2021-10-21T15:04:12+02:00</time>
      </trkpt>
      <trkpt lat="43.74513" lon="3.44507">
        <ele>536</ele>
        <time>2021-10-21T15:04:15+02:00</time>
      </trkpt>
      <trkpt lat="43.74516" lon="3.44498">
        <ele>534</ele>
        <time>2021-10-21T15:04:22+02:00</time>
      </trkpt>
      <trkpt lat="43.7452" lon="3.44493">
        <ele>534</ele>
        <time>2021-10-21T15:04:28+02:00</time>
      </trkpt>
      <trkpt lat="43.74522" lon="3.44489">
        <ele>533</ele>
        <time>2021-10-21T15:04:31+02:00</time>
      </trkpt>
      <trkpt lat="43.74534" lon="3.44475">
        <ele>531</ele>
        <time>2021-10-21T15:04:46+02:00</time>
      </trkpt>
      <trkpt lat="43.74542" lon="3.44469">
        <ele>529</ele>
        <time>2021-10-21T15:04:55+02:00</time>
      </trkpt>
      <trkpt lat="43.74554" lon="3.44463">
        <ele>529</ele>
        <time>2021-10-21T15:05:07+02:00</time>
      </trkpt>
      <trkpt lat="43.74565" lon="3.4446">
        <ele>530</ele>
        <time>2021-10-21T15:05:21+02:00</time>
      </trkpt>
      <trkpt lat="43.74568" lon="3.44459">
        <ele>530</ele>
        <time>2021-10-21T15:05:23+02:00</time>
      </trkpt>
      <trkpt lat="43.7458" lon="3.44449">
        <ele>527</ele>
        <time>2021-10-21T15:05:37+02:00</time>
      </trkpt>
      <trkpt lat="43.74581" lon="3.44449">
        <ele>528</ele>
        <time>2021-10-21T15:05:38+02:00</time>
      </trkpt>
      <trkpt lat="43.74587" lon="3.44447">
        <ele>528</ele>
        <time>2021-10-21T15:05:43+02:00</time>
      </trkpt>
      <trkpt lat="43.74594" lon="3.44439">
        <ele>527</ele>
        <time>2021-10-21T15:05:52+02:00</time>
      </trkpt>
      <trkpt lat="43.74601" lon="3.44423">
        <ele>524</ele>
        <time>2021-10-21T15:06:02+02:00</time>
      </trkpt>
      <trkpt lat="43.74602" lon="3.44421">
        <ele>524</ele>
        <time>2021-10-21T15:06:04+02:00</time>
      </trkpt>
      <trkpt lat="43.74613" lon="3.44406">
        <ele>524</ele>
        <time>2021-10-21T15:06:19+02:00</time>
      </trkpt>
      <trkpt lat="43.7462" lon="3.4439">
        <ele>522</ele>
        <time>2021-10-21T15:06:35+02:00</time>
      </trkpt>
      <trkpt lat="43.74613" lon="3.44371">
        <ele>518</ele>
        <time>2021-10-21T15:06:56+02:00</time>
      </trkpt>
      <trkpt lat="43.7461" lon="3.44342">
        <ele>512</ele>
        <time>2021-10-21T15:07:18+02:00</time>
      </trkpt>
      <trkpt lat="43.74612" lon="3.44334">
        <ele>511</ele>
        <time>2021-10-21T15:07:37+02:00</time>
      </trkpt>
      <trkpt lat="43.7461" lon="3.44331">
        <ele>510</ele>
        <time>2021-10-21T15:09:11+02:00</time>
      </trkpt>
      <trkpt lat="43.74612" lon="3.44327">
        <ele>510</ele>
        <time>2021-10-21T15:12:03+02:00</time>
      </trkpt>
      <trkpt lat="43.74617" lon="3.44327">
        <ele>511</ele>
        <time>2021-10-21T15:15:05+02:00</time>
      </trkpt>
      <trkpt lat="43.74628" lon="3.44313">
        <ele>509</ele>
        <time>2021-10-21T15:15:29+02:00</time>
      </trkpt>
      <trkpt lat="43.74639" lon="3.44308">
        <ele>509</ele>
        <time>2021-10-21T15:15:43+02:00</time>
      </trkpt>
      <trkpt lat="43.74659" lon="3.44306">
        <ele>509</ele>
        <time>2021-10-21T15:16:04+02:00</time>
      </trkpt>
      <trkpt lat="43.74668" lon="3.44306">
        <ele>509</ele>
        <time>2021-10-21T15:16:13+02:00</time>
      </trkpt>
      <trkpt lat="43.74679" lon="3.44303">
        <ele>508</ele>
        <time>2021-10-21T15:16:27+02:00</time>
      </trkpt>
      <trkpt lat="43.74689" lon="3.44301">
        <ele>507</ele>
        <time>2021-10-21T15:16:39+02:00</time>
      </trkpt>
      <trkpt lat="43.74699" lon="3.44303">
        <ele>507</ele>
        <time>2021-10-21T15:16:45+02:00</time>
      </trkpt>
      <trkpt lat="43.74706" lon="3.44303">
        <ele>507</ele>
        <time>2021-10-21T15:16:53+02:00</time>
      </trkpt>
      <trkpt lat="43.74713" lon="3.44303">
        <ele>507</ele>
        <time>2021-10-21T15:16:59+02:00</time>
      </trkpt>
      <trkpt lat="43.74731" lon="3.44305">
        <ele>506</ele>
        <time>2021-10-21T15:17:15+02:00</time>
      </trkpt>
      <trkpt lat="43.74739" lon="3.44306">
        <ele>505</ele>
        <time>2021-10-21T15:17:20+02:00</time>
      </trkpt>
      <trkpt lat="43.74754" lon="3.44305">
        <ele>503</ele>
        <time>2021-10-21T15:17:36+02:00</time>
      </trkpt>
      <trkpt lat="43.74772" lon="3.44306">
        <ele>501</ele>
        <time>2021-10-21T15:17:54+02:00</time>
      </trkpt>
      <trkpt lat="43.74783" lon="3.44305">
        <ele>499</ele>
        <time>2021-10-21T15:18:04+02:00</time>
      </trkpt>
      <trkpt lat="43.74789" lon="3.44309">
        <ele>499</ele>
        <time>2021-10-21T15:18:08+02:00</time>
      </trkpt>
      <trkpt lat="43.74794" lon="3.44309">
        <ele>498</ele>
        <time>2021-10-21T15:18:14+02:00</time>
      </trkpt>
      <trkpt lat="43.74799" lon="3.44308">
        <ele>497</ele>
        <time>2021-10-21T15:18:18+02:00</time>
      </trkpt>
      <trkpt lat="43.74805" lon="3.4431">
        <ele>497</ele>
        <time>2021-10-21T15:18:24+02:00</time>
      </trkpt>
      <trkpt lat="43.74821" lon="3.44315">
        <ele>495</ele>
        <time>2021-10-21T15:18:39+02:00</time>
      </trkpt>
      <trkpt lat="43.74835" lon="3.44318">
        <ele>492</ele>
        <time>2021-10-21T15:18:51+02:00</time>
      </trkpt>
      <trkpt lat="43.7485" lon="3.44328">
        <ele>490</ele>
        <time>2021-10-21T15:19:07+02:00</time>
      </trkpt>
      <trkpt lat="43.74855" lon="3.4433">
        <ele>489</ele>
        <time>2021-10-21T15:19:12+02:00</time>
      </trkpt>
      <trkpt lat="43.74861" lon="3.44328">
        <ele>487</ele>
        <time>2021-10-21T15:19:17+02:00</time>
      </trkpt>
      <trkpt lat="43.74867" lon="3.4432">
        <ele>485</ele>
        <time>2021-10-21T15:19:22+02:00</time>
      </trkpt>
      <trkpt lat="43.74867" lon="3.44318">
        <ele>485</ele>
        <time>2021-10-21T15:19:23+02:00</time>
      </trkpt>
      <trkpt lat="43.74867" lon="3.44316">
        <ele>485</ele>
        <time>2021-10-21T15:19:24+02:00</time>
      </trkpt>
      <trkpt lat="43.74868" lon="3.44312">
        <ele>484</ele>
        <time>2021-10-21T15:19:29+02:00</time>
      </trkpt>
      <trkpt lat="43.74869" lon="3.4431">
        <ele>483</ele>
        <time>2021-10-21T15:19:30+02:00</time>
      </trkpt>
      <trkpt lat="43.74872" lon="3.44302">
        <ele>482</ele>
        <time>2021-10-21T15:19:34+02:00</time>
      </trkpt>
      <trkpt lat="43.74872" lon="3.44299">
        <ele>481</ele>
        <time>2021-10-21T15:19:35+02:00</time>
      </trkpt>
      <trkpt lat="43.74874" lon="3.44297">
        <ele>481</ele>
        <time>2021-10-21T15:19:36+02:00</time>
      </trkpt>
      <trkpt lat="43.74874" lon="3.44296">
        <ele>480</ele>
        <time>2021-10-21T15:19:37+02:00</time>
      </trkpt>
      <trkpt lat="43.74875" lon="3.44294">
        <ele>480</ele>
        <time>2021-10-21T15:19:38+02:00</time>
      </trkpt>
      <trkpt lat="43.74874" lon="3.44284">
        <ele>479</ele>
        <time>2021-10-21T15:19:47+02:00</time>
      </trkpt>
      <trkpt lat="43.74872" lon="3.4428">
        <ele>479</ele>
        <time>2021-10-21T15:19:51+02:00</time>
      </trkpt>
      <trkpt lat="43.74873" lon="3.44278">
        <ele>479</ele>
        <time>2021-10-21T15:19:52+02:00</time>
      </trkpt>
      <trkpt lat="43.74872" lon="3.44277">
        <ele>478</ele>
        <time>2021-10-21T15:19:53+02:00</time>
      </trkpt>
      <trkpt lat="43.74873" lon="3.44269">
        <ele>477</ele>
        <time>2021-10-21T15:19:58+02:00</time>
      </trkpt>
      <trkpt lat="43.74874" lon="3.44248">
        <ele>474</ele>
        <time>2021-10-21T15:20:10+02:00</time>
      </trkpt>
      <trkpt lat="43.74874" lon="3.44245">
        <ele>474</ele>
        <time>2021-10-21T15:20:11+02:00</time>
      </trkpt>
      <trkpt lat="43.74873" lon="3.44242">
        <ele>474</ele>
        <time>2021-10-21T15:20:12+02:00</time>
      </trkpt>
      <trkpt lat="43.74873" lon="3.44239">
        <ele>474</ele>
        <time>2021-10-21T15:20:13+02:00</time>
      </trkpt>
      <trkpt lat="43.74872" lon="3.44237">
        <ele>473</ele>
        <time>2021-10-21T15:20:14+02:00</time>
      </trkpt>
      <trkpt lat="43.74872" lon="3.44235">
        <ele>473</ele>
        <time>2021-10-21T15:20:15+02:00</time>
      </trkpt>
      <trkpt lat="43.74871" lon="3.44232">
        <ele>473</ele>
        <time>2021-10-21T15:20:17+02:00</time>
      </trkpt>
      <trkpt lat="43.7487" lon="3.44229">
        <ele>473</ele>
        <time>2021-10-21T15:20:18+02:00</time>
      </trkpt>
      <trkpt lat="43.7487" lon="3.44227">
        <ele>472</ele>
        <time>2021-10-21T15:20:19+02:00</time>
      </trkpt>
      <trkpt lat="43.74869" lon="3.44225">
        <ele>472</ele>
        <time>2021-10-21T15:20:20+02:00</time>
      </trkpt>
      <trkpt lat="43.74869" lon="3.44224">
        <ele>472</ele>
        <time>2021-10-21T15:20:21+02:00</time>
      </trkpt>
      <trkpt lat="43.74868" lon="3.44221">
        <ele>472</ele>
        <time>2021-10-21T15:20:25+02:00</time>
      </trkpt>
      <trkpt lat="43.74868" lon="3.44219">
        <ele>472</ele>
        <time>2021-10-21T15:20:26+02:00</time>
      </trkpt>
      <trkpt lat="43.74867" lon="3.44218">
        <ele>472</ele>
        <time>2021-10-21T15:20:27+02:00</time>
      </trkpt>
      <trkpt lat="43.74865" lon="3.44212">
        <ele>472</ele>
        <time>2021-10-21T15:20:34+02:00</time>
      </trkpt>
      <trkpt lat="43.74862" lon="3.44206">
        <ele>472</ele>
        <time>2021-10-21T15:20:37+02:00</time>
      </trkpt>
      <trkpt lat="43.74861" lon="3.44205">
        <ele>472</ele>
        <time>2021-10-21T15:20:38+02:00</time>
      </trkpt>
      <trkpt lat="43.7486" lon="3.44204">
        <ele>472</ele>
        <time>2021-10-21T15:20:39+02:00</time>
      </trkpt>
      <trkpt lat="43.74858" lon="3.44201">
        <ele>472</ele>
        <time>2021-10-21T15:20:41+02:00</time>
      </trkpt>
      <trkpt lat="43.74857" lon="3.442">
        <ele>472</ele>
        <time>2021-10-21T15:20:42+02:00</time>
      </trkpt>
      <trkpt lat="43.74857" lon="3.44198">
        <ele>472</ele>
        <time>2021-10-21T15:20:43+02:00</time>
      </trkpt>
      <trkpt lat="43.74855" lon="3.44195">
        <ele>472</ele>
        <time>2021-10-21T15:20:47+02:00</time>
      </trkpt>
      <trkpt lat="43.74854" lon="3.44194">
        <ele>472</ele>
        <time>2021-10-21T15:20:48+02:00</time>
      </trkpt>
      <trkpt lat="43.74852" lon="3.44188">
        <ele>472</ele>
        <time>2021-10-21T15:20:52+02:00</time>
      </trkpt>
      <trkpt lat="43.74851" lon="3.44186">
        <ele>472</ele>
        <time>2021-10-21T15:20:53+02:00</time>
      </trkpt>
      <trkpt lat="43.7485" lon="3.44184">
        <ele>472</ele>
        <time>2021-10-21T15:20:54+02:00</time>
      </trkpt>
      <trkpt lat="43.7485" lon="3.44182">
        <ele>472</ele>
        <time>2021-10-21T15:20:55+02:00</time>
      </trkpt>
      <trkpt lat="43.74846" lon="3.44178">
        <ele>472</ele>
        <time>2021-10-21T15:21:00+02:00</time>
      </trkpt>
      <trkpt lat="43.74845" lon="3.44176">
        <ele>472</ele>
        <time>2021-10-21T15:21:01+02:00</time>
      </trkpt>
      <trkpt lat="43.74843" lon="3.44173">
        <ele>472</ele>
        <time>2021-10-21T15:21:03+02:00</time>
      </trkpt>
      <trkpt lat="43.74841" lon="3.44165">
        <ele>471</ele>
        <time>2021-10-21T15:21:08+02:00</time>
      </trkpt>
      <trkpt lat="43.7484" lon="3.44163">
        <ele>471</ele>
        <time>2021-10-21T15:21:09+02:00</time>
      </trkpt>
      <trkpt lat="43.74837" lon="3.44153">
        <ele>470</ele>
        <time>2021-10-21T15:21:14+02:00</time>
      </trkpt>
      <trkpt lat="43.74836" lon="3.44152">
        <ele>470</ele>
        <time>2021-10-21T15:21:15+02:00</time>
      </trkpt>
      <trkpt lat="43.74832" lon="3.44145">
        <ele>469</ele>
        <time>2021-10-21T15:21:23+02:00</time>
      </trkpt>
      <trkpt lat="43.74829" lon="3.44141">
        <ele>469</ele>
        <time>2021-10-21T15:21:26+02:00</time>
      </trkpt>
      <trkpt lat="43.74828" lon="3.44139">
        <ele>468</ele>
        <time>2021-10-21T15:21:27+02:00</time>
      </trkpt>
      <trkpt lat="43.74827" lon="3.44137">
        <ele>468</ele>
        <time>2021-10-21T15:21:28+02:00</time>
      </trkpt>
      <trkpt lat="43.74826" lon="3.44135">
        <ele>468</ele>
        <time>2021-10-21T15:21:29+02:00</time>
      </trkpt>
      <trkpt lat="43.74826" lon="3.44133">
        <ele>468</ele>
        <time>2021-10-21T15:21:30+02:00</time>
      </trkpt>
      <trkpt lat="43.74825" lon="3.44132">
        <ele>468</ele>
        <time>2021-10-21T15:21:31+02:00</time>
      </trkpt>
      <trkpt lat="43.74825" lon="3.4413">
        <ele>468</ele>
        <time>2021-10-21T15:21:32+02:00</time>
      </trkpt>
      <trkpt lat="43.74824" lon="3.44128">
        <ele>467</ele>
        <time>2021-10-21T15:21:33+02:00</time>
      </trkpt>
      <trkpt lat="43.74824" lon="3.44127">
        <ele>467</ele>
        <time>2021-10-21T15:21:34+02:00</time>
      </trkpt>
      <trkpt lat="43.74823" lon="3.44125">
        <ele>467</ele>
        <time>2021-10-21T15:21:35+02:00</time>
      </trkpt>
      <trkpt lat="43.74823" lon="3.44123">
        <ele>467</ele>
        <time>2021-10-21T15:21:36+02:00</time>
      </trkpt>
      <trkpt lat="43.74823" lon="3.44121">
        <ele>467</ele>
        <time>2021-10-21T15:21:37+02:00</time>
      </trkpt>
      <trkpt lat="43.74823" lon="3.44119">
        <ele>466</ele>
        <time>2021-10-21T15:21:38+02:00</time>
      </trkpt>
      <trkpt lat="43.74822" lon="3.44116">
        <ele>466</ele>
        <time>2021-10-21T15:21:39+02:00</time>
      </trkpt>
      <trkpt lat="43.74822" lon="3.44114">
        <ele>466</ele>
        <time>2021-10-21T15:21:40+02:00</time>
      </trkpt>
      <trkpt lat="43.7482" lon="3.44108">
        <ele>465</ele>
        <time>2021-10-21T15:21:44+02:00</time>
      </trkpt>
      <trkpt lat="43.74818" lon="3.44099">
        <ele>464</ele>
        <time>2021-10-21T15:21:47+02:00</time>
      </trkpt>
      <trkpt lat="43.74819" lon="3.44097">
        <ele>464</ele>
        <time>2021-10-21T15:21:48+02:00</time>
      </trkpt>
      <trkpt lat="43.74819" lon="3.44096">
        <ele>464</ele>
        <time>2021-10-21T15:21:49+02:00</time>
      </trkpt>
      <trkpt lat="43.74819" lon="3.44094">
        <ele>464</ele>
        <time>2021-10-21T15:21:50+02:00</time>
      </trkpt>
      <trkpt lat="43.74819" lon="3.44092">
        <ele>464</ele>
        <time>2021-10-21T15:21:51+02:00</time>
      </trkpt>
      <trkpt lat="43.74819" lon="3.44089">
        <ele>464</ele>
        <time>2021-10-21T15:21:52+02:00</time>
      </trkpt>
      <trkpt lat="43.7482" lon="3.44087">
        <ele>463</ele>
        <time>2021-10-21T15:21:53+02:00</time>
      </trkpt>
      <trkpt lat="43.74821" lon="3.44085">
        <ele>463</ele>
        <time>2021-10-21T15:21:54+02:00</time>
      </trkpt>
      <trkpt lat="43.74821" lon="3.44075">
        <ele>462</ele>
        <time>2021-10-21T15:21:58+02:00</time>
      </trkpt>
      <trkpt lat="43.74821" lon="3.44073">
        <ele>462</ele>
        <time>2021-10-21T15:21:59+02:00</time>
      </trkpt>
      <trkpt lat="43.7482" lon="3.44071">
        <ele>462</ele>
        <time>2021-10-21T15:22:00+02:00</time>
      </trkpt>
      <trkpt lat="43.74819" lon="3.44068">
        <ele>461</ele>
        <time>2021-10-21T15:22:01+02:00</time>
      </trkpt>
      <trkpt lat="43.74819" lon="3.44066">
        <ele>461</ele>
        <time>2021-10-21T15:22:02+02:00</time>
      </trkpt>
      <trkpt lat="43.74817" lon="3.44062">
        <ele>461</ele>
        <time>2021-10-21T15:22:05+02:00</time>
      </trkpt>
      <trkpt lat="43.74816" lon="3.44061">
        <ele>461</ele>
        <time>2021-10-21T15:22:06+02:00</time>
      </trkpt>
      <trkpt lat="43.74814" lon="3.4405">
        <ele>459</ele>
        <time>2021-10-21T15:22:14+02:00</time>
      </trkpt>
      <trkpt lat="43.74815" lon="3.44048">
        <ele>459</ele>
        <time>2021-10-21T15:22:15+02:00</time>
      </trkpt>
      <trkpt lat="43.74815" lon="3.44046">
        <ele>459</ele>
        <time>2021-10-21T15:22:16+02:00</time>
      </trkpt>
      <trkpt lat="43.74815" lon="3.44044">
        <ele>458</ele>
        <time>2021-10-21T15:22:17+02:00</time>
      </trkpt>
      <trkpt lat="43.74815" lon="3.44043">
        <ele>458</ele>
        <time>2021-10-21T15:22:18+02:00</time>
      </trkpt>
      <trkpt lat="43.74817" lon="3.44037">
        <ele>457</ele>
        <time>2021-10-21T15:22:25+02:00</time>
      </trkpt>
      <trkpt lat="43.74817" lon="3.44035">
        <ele>457</ele>
        <time>2021-10-21T15:22:26+02:00</time>
      </trkpt>
      <trkpt lat="43.74815" lon="3.44032">
        <ele>457</ele>
        <time>2021-10-21T15:22:29+02:00</time>
      </trkpt>
      <trkpt lat="43.74812" lon="3.44028">
        <ele>456</ele>
        <time>2021-10-21T15:22:34+02:00</time>
      </trkpt>
      <trkpt lat="43.74812" lon="3.44026">
        <ele>456</ele>
        <time>2021-10-21T15:22:35+02:00</time>
      </trkpt>
      <trkpt lat="43.74809" lon="3.44019">
        <ele>455</ele>
        <time>2021-10-21T15:22:41+02:00</time>
      </trkpt>
      <trkpt lat="43.74797" lon="3.44013">
        <ele>454</ele>
        <time>2021-10-21T15:22:56+02:00</time>
      </trkpt>
      <trkpt lat="43.74782" lon="3.44034">
        <ele>455</ele>
        <time>2021-10-21T15:23:14+02:00</time>
      </trkpt>
      <trkpt lat="43.74776" lon="3.44038">
        <ele>455</ele>
        <time>2021-10-21T15:23:24+02:00</time>
      </trkpt>
      <trkpt lat="43.7477" lon="3.44046">
        <ele>455</ele>
        <time>2021-10-21T15:23:33+02:00</time>
      </trkpt>
      <trkpt lat="43.74761" lon="3.4405">
        <ele>455</ele>
        <time>2021-10-21T15:23:39+02:00</time>
      </trkpt>
      <trkpt lat="43.74746" lon="3.44034">
        <ele>451</ele>
        <time>2021-10-21T15:23:55+02:00</time>
      </trkpt>
      <trkpt lat="43.74735" lon="3.44025">
        <ele>449</ele>
        <time>2021-10-21T15:24:06+02:00</time>
      </trkpt>
      <trkpt lat="43.74731" lon="3.4402">
        <ele>448</ele>
        <time>2021-10-21T15:24:10+02:00</time>
      </trkpt>
      <trkpt lat="43.74717" lon="3.44008">
        <ele>445</ele>
        <time>2021-10-21T15:24:23+02:00</time>
      </trkpt>
      <trkpt lat="43.74716" lon="3.44006">
        <ele>444</ele>
        <time>2021-10-21T15:24:25+02:00</time>
      </trkpt>
      <trkpt lat="43.74716" lon="3.44005">
        <ele>444</ele>
        <time>2021-10-21T15:24:26+02:00</time>
      </trkpt>
      <trkpt lat="43.74714" lon="3.44004">
        <ele>444</ele>
        <time>2021-10-21T15:24:27+02:00</time>
      </trkpt>
      <trkpt lat="43.74713" lon="3.44004">
        <ele>444</ele>
        <time>2021-10-21T15:24:28+02:00</time>
      </trkpt>
      <trkpt lat="43.74711" lon="3.44003">
        <ele>444</ele>
        <time>2021-10-21T15:24:29+02:00</time>
      </trkpt>
      <trkpt lat="43.74711" lon="3.44002">
        <ele>443</ele>
        <time>2021-10-21T15:24:30+02:00</time>
      </trkpt>
      <trkpt lat="43.74708" lon="3.43996">
        <ele>442</ele>
        <time>2021-10-21T15:24:36+02:00</time>
      </trkpt>
      <trkpt lat="43.74708" lon="3.43994">
        <ele>442</ele>
        <time>2021-10-21T15:24:37+02:00</time>
      </trkpt>
      <trkpt lat="43.74708" lon="3.43992">
        <ele>442</ele>
        <time>2021-10-21T15:24:38+02:00</time>
      </trkpt>
      <trkpt lat="43.74707" lon="3.4399">
        <ele>441</ele>
        <time>2021-10-21T15:24:39+02:00</time>
      </trkpt>
      <trkpt lat="43.74707" lon="3.43989">
        <ele>441</ele>
        <time>2021-10-21T15:24:40+02:00</time>
      </trkpt>
      <trkpt lat="43.74707" lon="3.43987">
        <ele>441</ele>
        <time>2021-10-21T15:24:41+02:00</time>
      </trkpt>
      <trkpt lat="43.74706" lon="3.43985">
        <ele>440</ele>
        <time>2021-10-21T15:24:43+02:00</time>
      </trkpt>
      <trkpt lat="43.74701" lon="3.43977">
        <ele>439</ele>
        <time>2021-10-21T15:24:49+02:00</time>
      </trkpt>
      <trkpt lat="43.74697" lon="3.4396">
        <ele>436</ele>
        <time>2021-10-21T15:25:00+02:00</time>
      </trkpt>
      <trkpt lat="43.74696" lon="3.43959">
        <ele>436</ele>
        <time>2021-10-21T15:25:01+02:00</time>
      </trkpt>
      <trkpt lat="43.74696" lon="3.43958">
        <ele>435</ele>
        <time>2021-10-21T15:25:02+02:00</time>
      </trkpt>
      <trkpt lat="43.74696" lon="3.43955">
        <ele>435</ele>
        <time>2021-10-21T15:25:05+02:00</time>
      </trkpt>
      <trkpt lat="43.74701" lon="3.43953">
        <ele>434</ele>
        <time>2021-10-21T15:25:13+02:00</time>
      </trkpt>
      <trkpt lat="43.74707" lon="3.43952">
        <ele>434</ele>
        <time>2021-10-21T15:25:20+02:00</time>
      </trkpt>
      <trkpt lat="43.74715" lon="3.4395">
        <ele>434</ele>
        <time>2021-10-21T15:25:30+02:00</time>
      </trkpt>
      <trkpt lat="43.74727" lon="3.43949">
        <ele>434</ele>
        <time>2021-10-21T15:25:41+02:00</time>
      </trkpt>
      <trkpt lat="43.74735" lon="3.43952">
        <ele>435</ele>
        <time>2021-10-21T15:25:48+02:00</time>
      </trkpt>
      <trkpt lat="43.74739" lon="3.43952">
        <ele>436</ele>
        <time>2021-10-21T15:25:52+02:00</time>
      </trkpt>
      <trkpt lat="43.74747" lon="3.4395">
        <ele>436</ele>
        <time>2021-10-21T15:26:03+02:00</time>
      </trkpt>
      <trkpt lat="43.74759" lon="3.43945">
        <ele>436</ele>
        <time>2021-10-21T15:26:16+02:00</time>
      </trkpt>
      <trkpt lat="43.74767" lon="3.43941">
        <ele>435</ele>
        <time>2021-10-21T15:26:27+02:00</time>
      </trkpt>
      <trkpt lat="43.74781" lon="3.4393">
        <ele>433</ele>
        <time>2021-10-21T15:26:42+02:00</time>
      </trkpt>
      <trkpt lat="43.74782" lon="3.4393">
        <ele>433</ele>
        <time>2021-10-21T15:26:43+02:00</time>
      </trkpt>
      <trkpt lat="43.74787" lon="3.43927">
        <ele>433</ele>
        <time>2021-10-21T15:26:49+02:00</time>
      </trkpt>
      <trkpt lat="43.74802" lon="3.43918">
        <ele>432</ele>
        <time>2021-10-21T15:27:02+02:00</time>
      </trkpt>
      <trkpt lat="43.74803" lon="3.43917">
        <ele>432</ele>
        <time>2021-10-21T15:27:04+02:00</time>
      </trkpt>
      <trkpt lat="43.74807" lon="3.43916">
        <ele>432</ele>
        <time>2021-10-21T15:27:07+02:00</time>
      </trkpt>
      <trkpt lat="43.74816" lon="3.43915">
        <ele>432</ele>
        <time>2021-10-21T15:27:16+02:00</time>
      </trkpt>
      <trkpt lat="43.74821" lon="3.43913">
        <ele>431</ele>
        <time>2021-10-21T15:27:33+02:00</time>
      </trkpt>
      <trkpt lat="43.74827" lon="3.43911">
        <ele>430</ele>
        <time>2021-10-21T15:27:57+02:00</time>
      </trkpt>
      <trkpt lat="43.74828" lon="3.43905">
        <ele>428</ele>
        <time>2021-10-21T15:28:15+02:00</time>
      </trkpt>
      <trkpt lat="43.74828" lon="3.43901">
        <ele>426</ele>
        <time>2021-10-21T15:28:35+02:00</time>
      </trkpt>
      <trkpt lat="43.74829" lon="3.43898">
        <ele>424</ele>
        <time>2021-10-21T15:28:53+02:00</time>
      </trkpt>
      <trkpt lat="43.74832" lon="3.4389">
        <ele>421</ele>
        <time>2021-10-21T15:29:07+02:00</time>
      </trkpt>
      <trkpt lat="43.74836" lon="3.43883">
        <ele>419</ele>
        <time>2021-10-21T15:29:22+02:00</time>
      </trkpt>
      <trkpt lat="43.7484" lon="3.43874">
        <ele>417</ele>
        <time>2021-10-21T15:29:36+02:00</time>
      </trkpt>
      <trkpt lat="43.74849" lon="3.43866">
        <ele>414</ele>
        <time>2021-10-21T15:29:50+02:00</time>
      </trkpt>
      <trkpt lat="43.74866" lon="3.4386">
        <ele>412</ele>
        <time>2021-10-21T15:30:07+02:00</time>
      </trkpt>
      <trkpt lat="43.74879" lon="3.43853">
        <ele>408</ele>
        <time>2021-10-21T15:30:24+02:00</time>
      </trkpt>
      <trkpt lat="43.7488" lon="3.43855">
        <ele>409</ele>
        <time>2021-10-21T15:30:26+02:00</time>
      </trkpt>
      <trkpt lat="43.74885" lon="3.43854">
        <ele>408</ele>
        <time>2021-10-21T15:30:31+02:00</time>
      </trkpt>
      <trkpt lat="43.74894" lon="3.4385">
        <ele>405</ele>
        <time>2021-10-21T15:30:41+02:00</time>
      </trkpt>
      <trkpt lat="43.74908" lon="3.43849">
        <ele>403</ele>
        <time>2021-10-21T15:30:57+02:00</time>
      </trkpt>
      <trkpt lat="43.74912" lon="3.43851">
        <ele>402</ele>
        <time>2021-10-21T15:31:02+02:00</time>
      </trkpt>
      <trkpt lat="43.74916" lon="3.43853">
        <ele>403</ele>
        <time>2021-10-21T15:31:05+02:00</time>
      </trkpt>
      <trkpt lat="43.74927" lon="3.43857">
        <ele>402</ele>
        <time>2021-10-21T15:31:16+02:00</time>
      </trkpt>
      <trkpt lat="43.74929" lon="3.43858">
        <ele>403</ele>
        <time>2021-10-21T15:31:18+02:00</time>
      </trkpt>
      <trkpt lat="43.74943" lon="3.43865">
        <ele>404</ele>
        <time>2021-10-21T15:31:30+02:00</time>
      </trkpt>
      <trkpt lat="43.74954" lon="3.43867">
        <ele>403</ele>
        <time>2021-10-21T15:31:41+02:00</time>
      </trkpt>
      <trkpt lat="43.74968" lon="3.43869">
        <ele>402</ele>
        <time>2021-10-21T15:31:57+02:00</time>
      </trkpt>
      <trkpt lat="43.74978" lon="3.4387">
        <ele>401</ele>
        <time>2021-10-21T15:32:13+02:00</time>
      </trkpt>
      <trkpt lat="43.74992" lon="3.43865">
        <ele>398</ele>
        <time>2021-10-21T15:32:32+02:00</time>
      </trkpt>
      <trkpt lat="43.74993" lon="3.43864">
        <ele>398</ele>
        <time>2021-10-21T15:32:33+02:00</time>
      </trkpt>
      <trkpt lat="43.75006" lon="3.43861">
        <ele>396</ele>
        <time>2021-10-21T15:32:46+02:00</time>
      </trkpt>
      <trkpt lat="43.75014" lon="3.43858">
        <ele>395</ele>
        <time>2021-10-21T15:32:54+02:00</time>
      </trkpt>
      <trkpt lat="43.75022" lon="3.43854">
        <ele>395</ele>
        <time>2021-10-21T15:33:06+02:00</time>
      </trkpt>
      <trkpt lat="43.75024" lon="3.43852">
        <ele>394</ele>
        <time>2021-10-21T15:33:09+02:00</time>
      </trkpt>
      <trkpt lat="43.75027" lon="3.4385">
        <ele>394</ele>
        <time>2021-10-21T15:33:12+02:00</time>
      </trkpt>
      <trkpt lat="43.75025" lon="3.43841">
        <ele>392</ele>
        <time>2021-10-21T15:33:26+02:00</time>
      </trkpt>
      <trkpt lat="43.75022" lon="3.43826">
        <ele>389</ele>
        <time>2021-10-21T15:33:42+02:00</time>
      </trkpt>
      <trkpt lat="43.7503" lon="3.43813">
        <ele>385</ele>
        <time>2021-10-21T15:33:57+02:00</time>
      </trkpt>
      <trkpt lat="43.75041" lon="3.43807">
        <ele>382</ele>
        <time>2021-10-21T15:34:13+02:00</time>
      </trkpt>
      <trkpt lat="43.75049" lon="3.43802">
        <ele>379</ele>
        <time>2021-10-21T15:34:28+02:00</time>
      </trkpt>
      <trkpt lat="43.75043" lon="3.43796">
        <ele>378</ele>
        <time>2021-10-21T15:34:45+02:00</time>
      </trkpt>
      <trkpt lat="43.75044" lon="3.43788">
        <ele>375</ele>
        <time>2021-10-21T15:35:01+02:00</time>
      </trkpt>
      <trkpt lat="43.7505" lon="3.43782">
        <ele>372</ele>
        <time>2021-10-21T15:35:15+02:00</time>
      </trkpt>
      <trkpt lat="43.75062" lon="3.43779">
        <ele>369</ele>
        <time>2021-10-21T15:35:35+02:00</time>
      </trkpt>
      <trkpt lat="43.75064" lon="3.4378">
        <ele>369</ele>
        <time>2021-10-21T15:35:38+02:00</time>
      </trkpt>
      <trkpt lat="43.75069" lon="3.43781">
        <ele>368</ele>
        <time>2021-10-21T15:35:44+02:00</time>
      </trkpt>
      <trkpt lat="43.75075" lon="3.43782">
        <ele>367</ele>
        <time>2021-10-21T15:35:49+02:00</time>
      </trkpt>
      <trkpt lat="43.75086" lon="3.43789">
        <ele>367</ele>
        <time>2021-10-21T15:36:01+02:00</time>
      </trkpt>
      <trkpt lat="43.75094" lon="3.43789">
        <ele>366</ele>
        <time>2021-10-21T15:36:16+02:00</time>
      </trkpt>
      <trkpt lat="43.75099" lon="3.4379">
        <ele>365</ele>
        <time>2021-10-21T15:36:41+02:00</time>
      </trkpt>
      <trkpt lat="43.75111" lon="3.43797">
        <ele>365</ele>
        <time>2021-10-21T15:36:57+02:00</time>
      </trkpt>
      <trkpt lat="43.7512" lon="3.43802">
        <ele>364</ele>
        <time>2021-10-21T15:37:08+02:00</time>
      </trkpt>
      <trkpt lat="43.75125" lon="3.43803">
        <ele>362</ele>
        <time>2021-10-21T15:37:13+02:00</time>
      </trkpt>
      <trkpt lat="43.7514" lon="3.43809">
        <ele>360</ele>
        <time>2021-10-21T15:37:29+02:00</time>
      </trkpt>
      <trkpt lat="43.75143" lon="3.4381">
        <ele>360</ele>
        <time>2021-10-21T15:37:32+02:00</time>
      </trkpt>
      <trkpt lat="43.75149" lon="3.43812">
        <ele>359</ele>
        <time>2021-10-21T15:37:47+02:00</time>
      </trkpt>
      <trkpt lat="43.75158" lon="3.43808">
        <ele>355</ele>
        <time>2021-10-21T15:38:07+02:00</time>
      </trkpt>
      <trkpt lat="43.75168" lon="3.438">
        <ele>352</ele>
        <time>2021-10-21T15:38:28+02:00</time>
      </trkpt>
      <trkpt lat="43.7517" lon="3.43783">
        <ele>349</ele>
        <time>2021-10-21T15:38:49+02:00</time>
      </trkpt>
      <trkpt lat="43.75173" lon="3.43773">
        <ele>347</ele>
        <time>2021-10-21T15:39:00+02:00</time>
      </trkpt>
      <trkpt lat="43.75173" lon="3.43771">
        <ele>347</ele>
        <time>2021-10-21T15:39:02+02:00</time>
      </trkpt>
      <trkpt lat="43.75174" lon="3.4376">
        <ele>345</ele>
        <time>2021-10-21T15:39:12+02:00</time>
      </trkpt>
      <trkpt lat="43.75174" lon="3.43755">
        <ele>344</ele>
        <time>2021-10-21T15:39:16+02:00</time>
      </trkpt>
      <trkpt lat="43.75176" lon="3.43739">
        <ele>342</ele>
        <time>2021-10-21T15:39:28+02:00</time>
      </trkpt>
      <trkpt lat="43.75181" lon="3.43729">
        <ele>339</ele>
        <time>2021-10-21T15:39:40+02:00</time>
      </trkpt>
      <trkpt lat="43.75192" lon="3.4374">
        <ele>339</ele>
        <time>2021-10-21T15:39:58+02:00</time>
      </trkpt>
      <trkpt lat="43.75194" lon="3.43744">
        <ele>339</ele>
        <time>2021-10-21T15:40:03+02:00</time>
      </trkpt>
      <trkpt lat="43.75203" lon="3.43757">
        <ele>339</ele>
        <time>2021-10-21T15:40:14+02:00</time>
      </trkpt>
      <trkpt lat="43.75211" lon="3.43761">
        <ele>338</ele>
        <time>2021-10-21T15:40:22+02:00</time>
      </trkpt>
      <trkpt lat="43.75226" lon="3.43747">
        <ele>332</ele>
        <time>2021-10-21T15:40:39+02:00</time>
      </trkpt>
      <trkpt lat="43.75229" lon="3.43746">
        <ele>331</ele>
        <time>2021-10-21T15:40:45+02:00</time>
      </trkpt>
      <trkpt lat="43.75235" lon="3.43752">
        <ele>331</ele>
        <time>2021-10-21T15:40:53+02:00</time>
      </trkpt>
      <trkpt lat="43.75237" lon="3.43754">
        <ele>330</ele>
        <time>2021-10-21T15:40:55+02:00</time>
      </trkpt>
      <trkpt lat="43.75239" lon="3.43762">
        <ele>331</ele>
        <time>2021-10-21T15:41:01+02:00</time>
      </trkpt>
      <trkpt lat="43.75251" lon="3.43778">
        <ele>329</ele>
        <time>2021-10-21T15:41:20+02:00</time>
      </trkpt>
      <trkpt lat="43.75254" lon="3.43779">
        <ele>328</ele>
        <time>2021-10-21T15:41:49+02:00</time>
      </trkpt>
      <trkpt lat="43.75256" lon="3.43778">
        <ele>328</ele>
        <time>2021-10-21T15:42:06+02:00</time>
      </trkpt>
      <trkpt lat="43.75257" lon="3.43778">
        <ele>327</ele>
        <time>2021-10-21T15:42:09+02:00</time>
      </trkpt>
      <trkpt lat="43.75265" lon="3.43772">
        <ele>325</ele>
        <time>2021-10-21T15:42:23+02:00</time>
      </trkpt>
      <trkpt lat="43.75269" lon="3.43767">
        <ele>324</ele>
        <time>2021-10-21T15:42:42+02:00</time>
      </trkpt>
      <trkpt lat="43.75276" lon="3.43763">
        <ele>322</ele>
        <time>2021-10-21T15:42:49+02:00</time>
      </trkpt>
      <trkpt lat="43.7528" lon="3.4376">
        <ele>321</ele>
        <time>2021-10-21T15:42:53+02:00</time>
      </trkpt>
      <trkpt lat="43.75294" lon="3.43766">
        <ele>318</ele>
        <time>2021-10-21T15:43:06+02:00</time>
      </trkpt>
      <trkpt lat="43.75295" lon="3.4377">
        <ele>318</ele>
        <time>2021-10-21T15:43:08+02:00</time>
      </trkpt>
      <trkpt lat="43.75297" lon="3.43778">
        <ele>317</ele>
        <time>2021-10-21T15:43:16+02:00</time>
      </trkpt>
      <trkpt lat="43.75298" lon="3.4378">
        <ele>317</ele>
        <time>2021-10-21T15:43:17+02:00</time>
      </trkpt>
      <trkpt lat="43.75298" lon="3.43781">
        <ele>317</ele>
        <time>2021-10-21T15:43:18+02:00</time>
      </trkpt>
      <trkpt lat="43.75298" lon="3.43783">
        <ele>317</ele>
        <time>2021-10-21T15:43:19+02:00</time>
      </trkpt>
      <trkpt lat="43.75303" lon="3.43793">
        <ele>317</ele>
        <time>2021-10-21T15:43:30+02:00</time>
      </trkpt>
      <trkpt lat="43.75311" lon="3.43805">
        <ele>316</ele>
        <time>2021-10-21T15:43:44+02:00</time>
      </trkpt>
      <trkpt lat="43.75321" lon="3.43825">
        <ele>315</ele>
        <time>2021-10-21T15:44:01+02:00</time>
      </trkpt>
      <trkpt lat="43.75321" lon="3.43826">
        <ele>315</ele>
        <time>2021-10-21T15:44:02+02:00</time>
      </trkpt>
      <trkpt lat="43.75322" lon="3.43828">
        <ele>315</ele>
        <time>2021-10-21T15:44:03+02:00</time>
      </trkpt>
      <trkpt lat="43.75323" lon="3.43831">
        <ele>315</ele>
        <time>2021-10-21T15:44:04+02:00</time>
      </trkpt>
      <trkpt lat="43.75323" lon="3.43833">
        <ele>315</ele>
        <time>2021-10-21T15:44:05+02:00</time>
      </trkpt>
      <trkpt lat="43.75327" lon="3.43842">
        <ele>315</ele>
        <time>2021-10-21T15:44:14+02:00</time>
      </trkpt>
      <trkpt lat="43.75327" lon="3.43844">
        <ele>315</ele>
        <time>2021-10-21T15:44:15+02:00</time>
      </trkpt>
      <trkpt lat="43.75333" lon="3.43853">
        <ele>314</ele>
        <time>2021-10-21T15:44:27+02:00</time>
      </trkpt>
      <trkpt lat="43.75333" lon="3.43844">
        <ele>314</ele>
        <time>2021-10-21T15:44:33+02:00</time>
      </trkpt>
      <trkpt lat="43.75332" lon="3.43839">
        <ele>314</ele>
        <time>2021-10-21T15:44:37+02:00</time>
      </trkpt>
      <trkpt lat="43.75331" lon="3.43838">
        <ele>314</ele>
        <time>2021-10-21T15:44:38+02:00</time>
      </trkpt>
      <trkpt lat="43.7533" lon="3.43822">
        <ele>312</ele>
        <time>2021-10-21T15:44:50+02:00</time>
      </trkpt>
      <trkpt lat="43.75327" lon="3.43813">
        <ele>312</ele>
        <time>2021-10-21T15:44:59+02:00</time>
      </trkpt>
      <trkpt lat="43.75326" lon="3.4381">
        <ele>312</ele>
        <time>2021-10-21T15:45:00+02:00</time>
      </trkpt>
      <trkpt lat="43.75325" lon="3.43805">
        <ele>312</ele>
        <time>2021-10-21T15:45:02+02:00</time>
      </trkpt>
      <trkpt lat="43.75324" lon="3.43803">
        <ele>312</ele>
        <time>2021-10-21T15:45:03+02:00</time>
      </trkpt>
      <trkpt lat="43.75324" lon="3.43801">
        <ele>312</ele>
        <time>2021-10-21T15:45:04+02:00</time>
      </trkpt>
      <trkpt lat="43.7532" lon="3.43793">
        <ele>312</ele>
        <time>2021-10-21T15:45:11+02:00</time>
      </trkpt>
      <trkpt lat="43.7532" lon="3.43792">
        <ele>312</ele>
        <time>2021-10-21T15:45:12+02:00</time>
      </trkpt>
      <trkpt lat="43.75318" lon="3.43774">
        <ele>311</ele>
        <time>2021-10-21T15:45:24+02:00</time>
      </trkpt>
      <trkpt lat="43.75318" lon="3.43772">
        <ele>311</ele>
        <time>2021-10-21T15:45:26+02:00</time>
      </trkpt>
      <trkpt lat="43.75318" lon="3.4377">
        <ele>311</ele>
        <time>2021-10-21T15:45:27+02:00</time>
      </trkpt>
      <trkpt lat="43.75318" lon="3.43767">
        <ele>310</ele>
        <time>2021-10-21T15:45:28+02:00</time>
      </trkpt>
      <trkpt lat="43.75318" lon="3.43765">
        <ele>310</ele>
        <time>2021-10-21T15:45:29+02:00</time>
      </trkpt>
      <trkpt lat="43.75318" lon="3.43763">
        <ele>310</ele>
        <time>2021-10-21T15:45:30+02:00</time>
      </trkpt>
      <trkpt lat="43.75317" lon="3.43762">
        <ele>310</ele>
        <time>2021-10-21T15:45:31+02:00</time>
      </trkpt>
      <trkpt lat="43.75315" lon="3.43754">
        <ele>310</ele>
        <time>2021-10-21T15:45:38+02:00</time>
      </trkpt>
      <trkpt lat="43.75316" lon="3.43752">
        <ele>310</ele>
        <time>2021-10-21T15:45:39+02:00</time>
      </trkpt>
      <trkpt lat="43.75316" lon="3.4375">
        <ele>309</ele>
        <time>2021-10-21T15:45:40+02:00</time>
      </trkpt>
      <trkpt lat="43.75316" lon="3.43728">
        <ele>307</ele>
        <time>2021-10-21T15:45:55+02:00</time>
      </trkpt>
      <trkpt lat="43.75315" lon="3.4371">
        <ele>306</ele>
        <time>2021-10-21T15:46:06+02:00</time>
      </trkpt>
      <trkpt lat="43.75313" lon="3.43694">
        <ele>304</ele>
        <time>2021-10-21T15:46:19+02:00</time>
      </trkpt>
      <trkpt lat="43.75313" lon="3.43691">
        <ele>304</ele>
        <time>2021-10-21T15:46:21+02:00</time>
      </trkpt>
      <trkpt lat="43.75309" lon="3.43675">
        <ele>303</ele>
        <time>2021-10-21T15:46:34+02:00</time>
      </trkpt>
      <trkpt lat="43.75307" lon="3.43673">
        <ele>303</ele>
        <time>2021-10-21T15:46:36+02:00</time>
      </trkpt>
      <trkpt lat="43.75307" lon="3.43672">
        <ele>303</ele>
        <time>2021-10-21T15:46:37+02:00</time>
      </trkpt>
      <trkpt lat="43.75307" lon="3.43661">
        <ele>301</ele>
        <time>2021-10-21T15:46:47+02:00</time>
      </trkpt>
      <trkpt lat="43.75312" lon="3.43666">
        <ele>301</ele>
        <time>2021-10-21T15:46:53+02:00</time>
      </trkpt>
      <trkpt lat="43.75312" lon="3.43668">
        <ele>300</ele>
        <time>2021-10-21T15:46:54+02:00</time>
      </trkpt>
      <trkpt lat="43.75316" lon="3.43667">
        <ele>299</ele>
        <time>2021-10-21T15:46:58+02:00</time>
      </trkpt>
      <trkpt lat="43.75317" lon="3.43665">
        <ele>298</ele>
        <time>2021-10-21T15:46:59+02:00</time>
      </trkpt>
      <trkpt lat="43.75318" lon="3.43663">
        <ele>298</ele>
        <time>2021-10-21T15:47:00+02:00</time>
      </trkpt>
      <trkpt lat="43.75319" lon="3.43662">
        <ele>297</ele>
        <time>2021-10-21T15:47:01+02:00</time>
      </trkpt>
      <trkpt lat="43.75319" lon="3.43658">
        <ele>297</ele>
        <time>2021-10-21T15:47:19+02:00</time>
      </trkpt>
      <trkpt lat="43.75317" lon="3.43657">
        <ele>297</ele>
        <time>2021-10-21T15:47:31+02:00</time>
      </trkpt>
      <trkpt lat="43.75318" lon="3.43661">
        <ele>297</ele>
        <time>2021-10-21T15:47:33+02:00</time>
      </trkpt>
      <trkpt lat="43.75318" lon="3.43663">
        <ele>298</ele>
        <time>2021-10-21T15:47:34+02:00</time>
      </trkpt>
      <trkpt lat="43.75319" lon="3.43667">
        <ele>298</ele>
        <time>2021-10-21T15:47:35+02:00</time>
      </trkpt>
      <trkpt lat="43.7533" lon="3.43683">
        <ele>295</ele>
        <time>2021-10-21T15:47:51+02:00</time>
      </trkpt>
      <trkpt lat="43.75337" lon="3.43685">
        <ele>295</ele>
        <time>2021-10-21T15:47:58+02:00</time>
      </trkpt>
      <trkpt lat="43.75339" lon="3.43685">
        <ele>296</ele>
        <time>2021-10-21T15:47:59+02:00</time>
      </trkpt>
      <trkpt lat="43.75343" lon="3.43685">
        <ele>297</ele>
        <time>2021-10-21T15:48:01+02:00</time>
      </trkpt>
      <trkpt lat="43.75345" lon="3.43685">
        <ele>298</ele>
        <time>2021-10-21T15:48:02+02:00</time>
      </trkpt>
      <trkpt lat="43.75346" lon="3.43686">
        <ele>298</ele>
        <time>2021-10-21T15:48:03+02:00</time>
      </trkpt>
      <trkpt lat="43.75375" lon="3.43691">
        <ele>305</ele>
        <time>2021-10-21T15:48:22+02:00</time>
      </trkpt>
      <trkpt lat="43.7539" lon="3.43689">
        <ele>308</ele>
        <time>2021-10-21T15:48:35+02:00</time>
      </trkpt>
      <trkpt lat="43.75404" lon="3.43674">
        <ele>308</ele>
        <time>2021-10-21T15:48:50+02:00</time>
      </trkpt>
      <trkpt lat="43.75414" lon="3.43659">
        <ele>308</ele>
        <time>2021-10-21T15:49:05+02:00</time>
      </trkpt>
      <trkpt lat="43.75416" lon="3.43659">
        <ele>308</ele>
        <time>2021-10-21T15:49:06+02:00</time>
      </trkpt>
      <trkpt lat="43.75425" lon="3.43644">
        <ele>308</ele>
        <time>2021-10-21T15:49:17+02:00</time>
      </trkpt>
      <trkpt lat="43.7544" lon="3.43625">
        <ele>308</ele>
        <time>2021-10-21T15:49:33+02:00</time>
      </trkpt>
      <trkpt lat="43.75442" lon="3.43622">
        <ele>308</ele>
        <time>2021-10-21T15:49:37+02:00</time>
      </trkpt>
      <trkpt lat="43.75443" lon="3.43621">
        <ele>308</ele>
        <time>2021-10-21T15:49:38+02:00</time>
      </trkpt>
      <trkpt lat="43.75444" lon="3.4362">
        <ele>308</ele>
        <time>2021-10-21T15:49:39+02:00</time>
      </trkpt>
      <trkpt lat="43.75446" lon="3.43619">
        <ele>308</ele>
        <time>2021-10-21T15:49:40+02:00</time>
      </trkpt>
      <trkpt lat="43.75447" lon="3.43619">
        <ele>308</ele>
        <time>2021-10-21T15:49:41+02:00</time>
      </trkpt>
      <trkpt lat="43.75448" lon="3.43619">
        <ele>308</ele>
        <time>2021-10-21T15:49:42+02:00</time>
      </trkpt>
      <trkpt lat="43.75465" lon="3.43599">
        <ele>307</ele>
        <time>2021-10-21T15:50:00+02:00</time>
      </trkpt>
      <trkpt lat="43.75468" lon="3.43591">
        <ele>307</ele>
        <time>2021-10-21T15:50:08+02:00</time>
      </trkpt>
      <trkpt lat="43.75472" lon="3.43583">
        <ele>306</ele>
        <time>2021-10-21T15:50:14+02:00</time>
      </trkpt>
      <trkpt lat="43.75472" lon="3.43581">
        <ele>306</ele>
        <time>2021-10-21T15:50:15+02:00</time>
      </trkpt>
      <trkpt lat="43.75472" lon="3.4358">
        <ele>306</ele>
        <time>2021-10-21T15:50:16+02:00</time>
      </trkpt>
      <trkpt lat="43.75472" lon="3.43579">
        <ele>306</ele>
        <time>2021-10-21T15:50:17+02:00</time>
      </trkpt>
      <trkpt lat="43.75471" lon="3.43579">
        <ele>306</ele>
        <time>2021-10-21T15:50:18+02:00</time>
      </trkpt>
      <trkpt lat="43.75467" lon="3.43574">
        <ele>306</ele>
        <time>2021-10-21T15:50:22+02:00</time>
      </trkpt>
    </trkseg>
  </trk>
</gpx>